<?xml version="1.0" encoding="UTF-8" standalone="no" ?>
<gpx xmlns="http://www.topografix.com/GPX/1/1" xmlns:xsi="http://www.w3.org/2001/XMLSchema-instance" xsi:schemaLocation="http://www.topografix.com/GPX/1/1 http://www.topografix.com/GPX/1/1/gpx.xsd" version="1.1" creator="VisuGPX - https://www.visugpx.com">
  <metadata>
    <name>VTT Excideuil 01-09-2013</name>
    <desc><![CDATA[Reconnaissance du circuit 20 km pour le week end portes ouvertes]]></desc>
  </metadata>
  <trk>
    <name><![CDATA[Track-split-split]]></name>
    <trkseg>
      <trkpt lat="45.33457" lon="1.05502">
        <ele>144.5</ele>
      </trkpt>
      <trkpt lat="45.33518" lon="1.05491">
        <ele>145</ele>
      </trkpt>
      <trkpt lat="45.336" lon="1.05566">
        <ele>146</ele>
      </trkpt>
      <trkpt lat="45.33646" lon="1.05635">
        <ele>147</ele>
      </trkpt>
      <trkpt lat="45.33646" lon="1.05635">
        <ele>147</ele>
      </trkpt>
      <trkpt lat="45.3364" lon="1.05635">
        <ele>144</ele>
        <time>2013-09-01T06:16:22Z</time>
      </trkpt>
      <trkpt lat="45.33627" lon="1.05612">
        <ele>144</ele>
        <time>2013-09-01T06:16:30Z</time>
      </trkpt>
      <trkpt lat="45.33611" lon="1.05591">
        <ele>144</ele>
        <time>2013-09-01T06:16:38Z</time>
      </trkpt>
      <trkpt lat="45.33599" lon="1.05575">
        <ele>143</ele>
        <time>2013-09-01T06:16:46Z</time>
      </trkpt>
      <trkpt lat="45.33579" lon="1.05552">
        <ele>143</ele>
        <time>2013-09-01T06:16:55Z</time>
      </trkpt>
      <trkpt lat="45.33562" lon="1.05531">
        <ele>142</ele>
        <time>2013-09-01T06:17:02Z</time>
      </trkpt>
      <trkpt lat="45.33537" lon="1.05498">
        <ele>142</ele>
        <time>2013-09-01T06:17:11Z</time>
      </trkpt>
      <trkpt lat="45.33514" lon="1.05477">
        <ele>142</ele>
        <time>2013-09-01T06:17:19Z</time>
      </trkpt>
      <trkpt lat="45.33496" lon="1.05469">
        <ele>142</ele>
        <time>2013-09-01T06:17:25Z</time>
      </trkpt>
      <trkpt lat="45.33495" lon="1.05466">
        <ele>142</ele>
        <time>2013-09-01T06:17:26Z</time>
      </trkpt>
      <trkpt lat="45.33499" lon="1.05447">
        <ele>142</ele>
        <time>2013-09-01T06:17:31Z</time>
      </trkpt>
      <trkpt lat="45.33531" lon="1.05422">
        <ele>142</ele>
        <time>2013-09-01T06:17:42Z</time>
      </trkpt>
      <trkpt lat="45.33551" lon="1.05405">
        <ele>142</ele>
        <time>2013-09-01T06:17:49Z</time>
      </trkpt>
      <trkpt lat="45.33574" lon="1.05387">
        <ele>142</ele>
        <time>2013-09-01T06:17:57Z</time>
      </trkpt>
      <trkpt lat="45.33596" lon="1.05369">
        <ele>142</ele>
        <time>2013-09-01T06:18:05Z</time>
      </trkpt>
      <trkpt lat="45.33594" lon="1.0535">
        <ele>142</ele>
        <time>2013-09-01T06:18:10Z</time>
      </trkpt>
      <trkpt lat="45.33586" lon="1.05338">
        <ele>143</ele>
        <time>2013-09-01T06:18:14Z</time>
      </trkpt>
      <trkpt lat="45.33571" lon="1.05323">
        <ele>143</ele>
        <time>2013-09-01T06:18:21Z</time>
      </trkpt>
      <trkpt lat="45.3355" lon="1.05314">
        <ele>143</ele>
        <time>2013-09-01T06:18:28Z</time>
      </trkpt>
      <trkpt lat="45.3352" lon="1.05299">
        <ele>143</ele>
        <time>2013-09-01T06:18:38Z</time>
      </trkpt>
      <trkpt lat="45.33493" lon="1.05281">
        <ele>142</ele>
        <time>2013-09-01T06:18:47Z</time>
      </trkpt>
      <trkpt lat="45.33463" lon="1.05253">
        <ele>141</ele>
        <time>2013-09-01T06:18:57Z</time>
      </trkpt>
      <trkpt lat="45.33438" lon="1.05223">
        <ele>141</ele>
        <time>2013-09-01T06:19:07Z</time>
      </trkpt>
      <trkpt lat="45.33423" lon="1.05194">
        <ele>141</ele>
        <time>2013-09-01T06:19:14Z</time>
      </trkpt>
      <trkpt lat="45.33415" lon="1.05175">
        <ele>142</ele>
        <time>2013-09-01T06:19:19Z</time>
      </trkpt>
      <trkpt lat="45.33418" lon="1.05164">
        <ele>143</ele>
        <time>2013-09-01T06:19:23Z</time>
      </trkpt>
      <trkpt lat="45.33433" lon="1.05143">
        <ele>143</ele>
        <time>2013-09-01T06:19:31Z</time>
      </trkpt>
      <trkpt lat="45.33446" lon="1.05121">
        <ele>145</ele>
        <time>2013-09-01T06:19:39Z</time>
      </trkpt>
      <trkpt lat="45.33459" lon="1.05111">
        <ele>145</ele>
        <time>2013-09-01T06:19:45Z</time>
      </trkpt>
      <trkpt lat="45.33475" lon="1.05093">
        <ele>147</ele>
        <time>2013-09-01T06:19:54Z</time>
      </trkpt>
      <trkpt lat="45.33485" lon="1.05074">
        <ele>148</ele>
        <time>2013-09-01T06:20:01Z</time>
      </trkpt>
      <trkpt lat="45.33496" lon="1.05056">
        <ele>149</ele>
        <time>2013-09-01T06:20:08Z</time>
      </trkpt>
      <trkpt lat="45.33508" lon="1.05033">
        <ele>150</ele>
        <time>2013-09-01T06:20:16Z</time>
      </trkpt>
      <trkpt lat="45.3352" lon="1.0501">
        <ele>151</ele>
        <time>2013-09-01T06:20:24Z</time>
      </trkpt>
      <trkpt lat="45.33533" lon="1.04982">
        <ele>152</ele>
        <time>2013-09-01T06:20:33Z</time>
      </trkpt>
      <trkpt lat="45.3354" lon="1.04964">
        <ele>152</ele>
        <time>2013-09-01T06:20:39Z</time>
      </trkpt>
      <trkpt lat="45.33549" lon="1.04951">
        <ele>152</ele>
        <time>2013-09-01T06:20:44Z</time>
      </trkpt>
      <trkpt lat="45.33551" lon="1.04947">
        <ele>153</ele>
        <time>2013-09-01T06:20:46Z</time>
      </trkpt>
      <trkpt lat="45.3355" lon="1.04943">
        <ele>152</ele>
        <time>2013-09-01T06:20:48Z</time>
      </trkpt>
      <trkpt lat="45.33543" lon="1.04926">
        <ele>152</ele>
        <time>2013-09-01T06:20:55Z</time>
      </trkpt>
      <trkpt lat="45.33531" lon="1.04909">
        <ele>153</ele>
        <time>2013-09-01T06:21:02Z</time>
      </trkpt>
      <trkpt lat="45.33531" lon="1.04897">
        <ele>153</ele>
        <time>2013-09-01T06:21:06Z</time>
      </trkpt>
      <trkpt lat="45.33547" lon="1.04866">
        <ele>153</ele>
        <time>2013-09-01T06:21:15Z</time>
      </trkpt>
      <trkpt lat="45.33564" lon="1.04841">
        <ele>152</ele>
        <time>2013-09-01T06:21:23Z</time>
      </trkpt>
      <trkpt lat="45.33583" lon="1.0481">
        <ele>152</ele>
        <time>2013-09-01T06:21:31Z</time>
      </trkpt>
      <trkpt lat="45.33593" lon="1.04792">
        <ele>152</ele>
        <time>2013-09-01T06:21:37Z</time>
      </trkpt>
      <trkpt lat="45.33611" lon="1.04763">
        <ele>152</ele>
        <time>2013-09-01T06:21:47Z</time>
      </trkpt>
      <trkpt lat="45.33633" lon="1.04724">
        <ele>152</ele>
        <time>2013-09-01T06:21:57Z</time>
      </trkpt>
      <trkpt lat="45.3365" lon="1.04693">
        <ele>151</ele>
        <time>2013-09-01T06:22:05Z</time>
      </trkpt>
      <trkpt lat="45.33665" lon="1.04664">
        <ele>151</ele>
        <time>2013-09-01T06:22:12Z</time>
      </trkpt>
      <trkpt lat="45.33669" lon="1.04628">
        <ele>151</ele>
        <time>2013-09-01T06:22:19Z</time>
      </trkpt>
      <trkpt lat="45.33666" lon="1.04566">
        <ele>152</ele>
        <time>2013-09-01T06:22:31Z</time>
      </trkpt>
      <trkpt lat="45.33664" lon="1.04529">
        <ele>152</ele>
        <time>2013-09-01T06:22:39Z</time>
      </trkpt>
      <trkpt lat="45.33679" lon="1.04504">
        <ele>152</ele>
        <time>2013-09-01T06:22:47Z</time>
      </trkpt>
      <trkpt lat="45.3369" lon="1.04491">
        <ele>153</ele>
        <time>2013-09-01T06:22:53Z</time>
      </trkpt>
      <trkpt lat="45.33694" lon="1.04487">
        <ele>153</ele>
        <time>2013-09-01T06:22:56Z</time>
      </trkpt>
      <trkpt lat="45.33691" lon="1.04483">
        <ele>153</ele>
        <time>2013-09-01T06:23:00Z</time>
      </trkpt>
      <trkpt lat="45.33671" lon="1.04507">
        <ele>152</ele>
        <time>2013-09-01T06:23:09Z</time>
      </trkpt>
      <trkpt lat="45.33659" lon="1.04535">
        <ele>152</ele>
        <time>2013-09-01T06:23:15Z</time>
      </trkpt>
      <trkpt lat="45.33652" lon="1.04526">
        <ele>153</ele>
        <time>2013-09-01T06:23:20Z</time>
      </trkpt>
      <trkpt lat="45.33645" lon="1.04504">
        <ele>154</ele>
        <time>2013-09-01T06:23:27Z</time>
      </trkpt>
      <trkpt lat="45.3364" lon="1.04478">
        <ele>156</ele>
        <time>2013-09-01T06:23:35Z</time>
      </trkpt>
      <trkpt lat="45.33643" lon="1.04453">
        <ele>159</ele>
        <time>2013-09-01T06:23:44Z</time>
      </trkpt>
      <trkpt lat="45.33648" lon="1.04437">
        <ele>161</ele>
        <time>2013-09-01T06:23:51Z</time>
      </trkpt>
      <trkpt lat="45.33646" lon="1.04418">
        <ele>164</ele>
        <time>2013-09-01T06:23:58Z</time>
      </trkpt>
      <trkpt lat="45.33642" lon="1.04399">
        <ele>166</ele>
        <time>2013-09-01T06:24:06Z</time>
      </trkpt>
      <trkpt lat="45.33641" lon="1.04392">
        <ele>168</ele>
        <time>2013-09-01T06:24:09Z</time>
      </trkpt>
      <trkpt lat="45.33639" lon="1.04375">
        <ele>170</ele>
        <time>2013-09-01T06:24:17Z</time>
      </trkpt>
      <trkpt lat="45.33634" lon="1.04359">
        <ele>170</ele>
        <time>2013-09-01T06:24:24Z</time>
      </trkpt>
      <trkpt lat="45.33631" lon="1.04338">
        <ele>169</ele>
        <time>2013-09-01T06:24:30Z</time>
      </trkpt>
      <trkpt lat="45.33627" lon="1.04319">
        <ele>167</ele>
        <time>2013-09-01T06:24:33Z</time>
      </trkpt>
      <trkpt lat="45.33611" lon="1.04257">
        <ele>167</ele>
        <time>2013-09-01T06:24:42Z</time>
      </trkpt>
      <trkpt lat="45.33592" lon="1.04212">
        <ele>167</ele>
        <time>2013-09-01T06:24:51Z</time>
      </trkpt>
      <trkpt lat="45.33569" lon="1.04176">
        <ele>166</ele>
        <time>2013-09-01T06:25:00Z</time>
      </trkpt>
      <trkpt lat="45.33553" lon="1.0414">
        <ele>168</ele>
        <time>2013-09-01T06:25:08Z</time>
      </trkpt>
      <trkpt lat="45.33543" lon="1.04105">
        <ele>168</ele>
        <time>2013-09-01T06:25:16Z</time>
      </trkpt>
      <trkpt lat="45.33538" lon="1.04074">
        <ele>168</ele>
        <time>2013-09-01T06:25:23Z</time>
      </trkpt>
      <trkpt lat="45.3353" lon="1.0404">
        <ele>169</ele>
        <time>2013-09-01T06:25:30Z</time>
      </trkpt>
      <trkpt lat="45.33515" lon="1.04009">
        <ele>169</ele>
        <time>2013-09-01T06:25:38Z</time>
      </trkpt>
      <trkpt lat="45.33492" lon="1.03971">
        <ele>170</ele>
        <time>2013-09-01T06:25:48Z</time>
      </trkpt>
      <trkpt lat="45.33471" lon="1.03937">
        <ele>170</ele>
        <time>2013-09-01T06:25:57Z</time>
      </trkpt>
      <trkpt lat="45.33456" lon="1.03906">
        <ele>170</ele>
        <time>2013-09-01T06:26:05Z</time>
      </trkpt>
      <trkpt lat="45.33445" lon="1.03881">
        <ele>172</ele>
        <time>2013-09-01T06:26:12Z</time>
      </trkpt>
      <trkpt lat="45.33439" lon="1.03866">
        <ele>173</ele>
        <time>2013-09-01T06:26:17Z</time>
      </trkpt>
      <trkpt lat="45.33423" lon="1.03837">
        <ele>175</ele>
        <time>2013-09-01T06:26:26Z</time>
      </trkpt>
      <trkpt lat="45.33416" lon="1.03809">
        <ele>177</ele>
        <time>2013-09-01T06:26:36Z</time>
      </trkpt>
      <trkpt lat="45.3341" lon="1.03781">
        <ele>179</ele>
        <time>2013-09-01T06:26:46Z</time>
      </trkpt>
      <trkpt lat="45.33412" lon="1.03745">
        <ele>182</ele>
        <time>2013-09-01T06:26:57Z</time>
      </trkpt>
      <trkpt lat="45.33417" lon="1.0371">
        <ele>183</ele>
        <time>2013-09-01T06:27:06Z</time>
      </trkpt>
      <trkpt lat="45.33413" lon="1.03689">
        <ele>183</ele>
        <time>2013-09-01T06:27:12Z</time>
      </trkpt>
      <trkpt lat="45.33393" lon="1.03681">
        <ele>182</ele>
        <time>2013-09-01T06:27:18Z</time>
      </trkpt>
      <trkpt lat="45.33378" lon="1.0367">
        <ele>181</ele>
        <time>2013-09-01T06:27:22Z</time>
      </trkpt>
      <trkpt lat="45.3334" lon="1.03637">
        <ele>180</ele>
        <time>2013-09-01T06:27:32Z</time>
      </trkpt>
      <trkpt lat="45.33318" lon="1.03606">
        <ele>179</ele>
        <time>2013-09-01T06:27:39Z</time>
      </trkpt>
      <trkpt lat="45.33304" lon="1.03554">
        <ele>178</ele>
        <time>2013-09-01T06:27:47Z</time>
      </trkpt>
      <trkpt lat="45.33295" lon="1.03495">
        <ele>176</ele>
        <time>2013-09-01T06:27:54Z</time>
      </trkpt>
      <trkpt lat="45.33286" lon="1.03437">
        <ele>172</ele>
        <time>2013-09-01T06:28:00Z</time>
      </trkpt>
      <trkpt lat="45.33282" lon="1.03422">
        <ele>171</ele>
        <time>2013-09-01T06:28:02Z</time>
      </trkpt>
      <trkpt lat="45.33265" lon="1.03392">
        <ele>170</ele>
        <time>2013-09-01T06:28:06Z</time>
      </trkpt>
      <trkpt lat="45.33245" lon="1.03366">
        <ele>168</ele>
        <time>2013-09-01T06:28:10Z</time>
      </trkpt>
      <trkpt lat="45.33233" lon="1.03355">
        <ele>168</ele>
        <time>2013-09-01T06:28:13Z</time>
      </trkpt>
      <trkpt lat="45.33236" lon="1.03351">
        <ele>167</ele>
        <time>2013-09-01T06:28:17Z</time>
      </trkpt>
      <trkpt lat="45.33244" lon="1.03353">
        <ele>166</ele>
        <time>2013-09-01T06:28:19Z</time>
      </trkpt>
      <trkpt lat="45.33274" lon="1.03367">
        <ele>163</ele>
        <time>2013-09-01T06:28:26Z</time>
      </trkpt>
      <trkpt lat="45.3328" lon="1.0337">
        <ele>162</ele>
        <time>2013-09-01T06:28:27Z</time>
      </trkpt>
      <trkpt lat="45.33323" lon="1.03376">
        <ele>160</ele>
        <time>2013-09-01T06:28:31Z</time>
      </trkpt>
      <trkpt lat="45.33339" lon="1.03368">
        <ele>158</ele>
        <time>2013-09-01T06:28:33Z</time>
      </trkpt>
      <trkpt lat="45.33353" lon="1.03332">
        <ele>155</ele>
        <time>2013-09-01T06:28:37Z</time>
      </trkpt>
      <trkpt lat="45.33352" lon="1.03319">
        <ele>154</ele>
        <time>2013-09-01T06:28:38Z</time>
      </trkpt>
      <trkpt lat="45.33343" lon="1.03283">
        <ele>153</ele>
        <time>2013-09-01T06:28:41Z</time>
      </trkpt>
      <trkpt lat="45.33327" lon="1.0322">
        <ele>154</ele>
        <time>2013-09-01T06:28:47Z</time>
      </trkpt>
      <trkpt lat="45.3332" lon="1.03204">
        <ele>155</ele>
        <time>2013-09-01T06:28:49Z</time>
      </trkpt>
      <trkpt lat="45.33314" lon="1.0319">
        <ele>157</ele>
        <time>2013-09-01T06:28:51Z</time>
      </trkpt>
      <trkpt lat="45.33307" lon="1.0317">
        <ele>156</ele>
        <time>2013-09-01T06:28:54Z</time>
      </trkpt>
      <trkpt lat="45.33303" lon="1.03108">
        <ele>153</ele>
        <time>2013-09-01T06:29:01Z</time>
      </trkpt>
      <trkpt lat="45.33303" lon="1.03097">
        <ele>152</ele>
        <time>2013-09-01T06:29:02Z</time>
      </trkpt>
      <trkpt lat="45.33284" lon="1.03068">
        <ele>151</ele>
        <time>2013-09-01T06:29:06Z</time>
      </trkpt>
      <trkpt lat="45.33277" lon="1.03065">
        <ele>151</ele>
        <time>2013-09-01T06:29:07Z</time>
      </trkpt>
      <trkpt lat="45.33237" lon="1.03049">
        <ele>152</ele>
        <time>2013-09-01T06:29:13Z</time>
      </trkpt>
      <trkpt lat="45.33221" lon="1.03037">
        <ele>152</ele>
        <time>2013-09-01T06:29:16Z</time>
      </trkpt>
      <trkpt lat="45.33209" lon="1.0302">
        <ele>152</ele>
        <time>2013-09-01T06:29:19Z</time>
      </trkpt>
      <trkpt lat="45.33192" lon="1.02974">
        <ele>155</ele>
        <time>2013-09-01T06:29:27Z</time>
      </trkpt>
      <trkpt lat="45.3319" lon="1.02967">
        <ele>156</ele>
        <time>2013-09-01T06:29:29Z</time>
      </trkpt>
      <trkpt lat="45.33184" lon="1.02948">
        <ele>158</ele>
        <time>2013-09-01T06:29:35Z</time>
      </trkpt>
      <trkpt lat="45.33181" lon="1.02931">
        <ele>160</ele>
        <time>2013-09-01T06:29:42Z</time>
      </trkpt>
      <trkpt lat="45.3317" lon="1.02906">
        <ele>162</ele>
        <time>2013-09-01T06:29:49Z</time>
      </trkpt>
      <trkpt lat="45.33159" lon="1.02887">
        <ele>164</ele>
        <time>2013-09-01T06:29:56Z</time>
      </trkpt>
      <trkpt lat="45.33154" lon="1.02868">
        <ele>164</ele>
        <time>2013-09-01T06:30:02Z</time>
      </trkpt>
      <trkpt lat="45.33146" lon="1.02837">
        <ele>164</ele>
        <time>2013-09-01T06:30:10Z</time>
      </trkpt>
      <trkpt lat="45.33139" lon="1.02802">
        <ele>164</ele>
        <time>2013-09-01T06:30:19Z</time>
      </trkpt>
      <trkpt lat="45.33137" lon="1.02775">
        <ele>165</ele>
        <time>2013-09-01T06:30:27Z</time>
      </trkpt>
      <trkpt lat="45.33138" lon="1.02739">
        <ele>167</ele>
        <time>2013-09-01T06:30:38Z</time>
      </trkpt>
      <trkpt lat="45.33134" lon="1.02728">
        <ele>169</ele>
        <time>2013-09-01T06:30:44Z</time>
      </trkpt>
      <trkpt lat="45.33126" lon="1.02724">
        <ele>171</ele>
        <time>2013-09-01T06:30:50Z</time>
      </trkpt>
      <trkpt lat="45.33107" lon="1.02722">
        <ele>172</ele>
        <time>2013-09-01T06:30:59Z</time>
      </trkpt>
      <trkpt lat="45.33089" lon="1.02724">
        <ele>173</ele>
        <time>2013-09-01T06:31:06Z</time>
      </trkpt>
      <trkpt lat="45.3307" lon="1.02734">
        <ele>174</ele>
        <time>2013-09-01T06:31:13Z</time>
      </trkpt>
      <trkpt lat="45.33049" lon="1.0276">
        <ele>175</ele>
        <time>2013-09-01T06:31:22Z</time>
      </trkpt>
      <trkpt lat="45.33033" lon="1.02776">
        <ele>176</ele>
        <time>2013-09-01T06:31:29Z</time>
      </trkpt>
      <trkpt lat="45.33002" lon="1.0279">
        <ele>173</ele>
        <time>2013-09-01T06:31:36Z</time>
      </trkpt>
      <trkpt lat="45.32986" lon="1.02797">
        <ele>173</ele>
        <time>2013-09-01T06:31:39Z</time>
      </trkpt>
      <trkpt lat="45.32964" lon="1.02824">
        <ele>173</ele>
        <time>2013-09-01T06:31:45Z</time>
      </trkpt>
      <trkpt lat="45.3295" lon="1.02837">
        <ele>175</ele>
        <time>2013-09-01T06:31:50Z</time>
      </trkpt>
      <trkpt lat="45.32935" lon="1.02844">
        <ele>176</ele>
        <time>2013-09-01T06:31:57Z</time>
      </trkpt>
      <trkpt lat="45.3292" lon="1.02836">
        <ele>177</ele>
        <time>2013-09-01T06:32:04Z</time>
      </trkpt>
      <trkpt lat="45.32915" lon="1.02816">
        <ele>178</ele>
        <time>2013-09-01T06:32:11Z</time>
      </trkpt>
      <trkpt lat="45.32893" lon="1.02795">
        <ele>178</ele>
        <time>2013-09-01T06:32:20Z</time>
      </trkpt>
      <trkpt lat="45.32879" lon="1.02777">
        <ele>178</ele>
        <time>2013-09-01T06:32:28Z</time>
      </trkpt>
      <trkpt lat="45.32868" lon="1.02758">
        <ele>178</ele>
        <time>2013-09-01T06:32:35Z</time>
      </trkpt>
      <trkpt lat="45.32857" lon="1.0273">
        <ele>178</ele>
        <time>2013-09-01T06:32:44Z</time>
      </trkpt>
      <trkpt lat="45.32848" lon="1.02718">
        <ele>177</ele>
        <time>2013-09-01T06:32:48Z</time>
      </trkpt>
      <trkpt lat="45.32838" lon="1.02695">
        <ele>177</ele>
        <time>2013-09-01T06:32:53Z</time>
      </trkpt>
      <trkpt lat="45.32833" lon="1.02664">
        <ele>176</ele>
        <time>2013-09-01T06:33:00Z</time>
      </trkpt>
      <trkpt lat="45.32828" lon="1.02624">
        <ele>175</ele>
        <time>2013-09-01T06:33:08Z</time>
      </trkpt>
      <trkpt lat="45.32822" lon="1.02587">
        <ele>174</ele>
        <time>2013-09-01T06:33:15Z</time>
      </trkpt>
      <trkpt lat="45.32812" lon="1.02544">
        <ele>173</ele>
        <time>2013-09-01T06:33:22Z</time>
      </trkpt>
      <trkpt lat="45.32806" lon="1.02498">
        <ele>171</ele>
        <time>2013-09-01T06:33:29Z</time>
      </trkpt>
      <trkpt lat="45.32802" lon="1.02465">
        <ele>171</ele>
        <time>2013-09-01T06:33:34Z</time>
      </trkpt>
      <trkpt lat="45.32807" lon="1.02417">
        <ele>170</ele>
        <time>2013-09-01T06:33:42Z</time>
      </trkpt>
      <trkpt lat="45.32798" lon="1.02383">
        <ele>170</ele>
        <time>2013-09-01T06:33:48Z</time>
      </trkpt>
      <trkpt lat="45.32783" lon="1.02353">
        <ele>168</ele>
        <time>2013-09-01T06:33:55Z</time>
      </trkpt>
      <trkpt lat="45.32782" lon="1.02348">
        <ele>168</ele>
        <time>2013-09-01T06:33:56Z</time>
      </trkpt>
      <trkpt lat="45.32781" lon="1.02319">
        <ele>165</ele>
        <time>2013-09-01T06:34:00Z</time>
      </trkpt>
      <trkpt lat="45.32766" lon="1.02263">
        <ele>161</ele>
        <time>2013-09-01T06:34:06Z</time>
      </trkpt>
      <trkpt lat="45.32751" lon="1.02198">
        <ele>158</ele>
        <time>2013-09-01T06:34:12Z</time>
      </trkpt>
      <trkpt lat="45.32746" lon="1.02152">
        <ele>156</ele>
        <time>2013-09-01T06:34:16Z</time>
      </trkpt>
      <trkpt lat="45.32743" lon="1.02091">
        <ele>152</ele>
        <time>2013-09-01T06:34:22Z</time>
      </trkpt>
      <trkpt lat="45.32745" lon="1.02057">
        <ele>150</ele>
        <time>2013-09-01T06:34:26Z</time>
      </trkpt>
      <trkpt lat="45.32748" lon="1.02044">
        <ele>148</ele>
        <time>2013-09-01T06:34:28Z</time>
      </trkpt>
      <trkpt lat="45.32753" lon="1.02031">
        <ele>148</ele>
        <time>2013-09-01T06:34:30Z</time>
      </trkpt>
      <trkpt lat="45.32765" lon="1.02012">
        <ele>147</ele>
        <time>2013-09-01T06:34:33Z</time>
      </trkpt>
      <trkpt lat="45.32772" lon="1.02001">
        <ele>147</ele>
        <time>2013-09-01T06:34:35Z</time>
      </trkpt>
      <trkpt lat="45.32788" lon="1.0198">
        <ele>148</ele>
        <time>2013-09-01T06:34:41Z</time>
      </trkpt>
      <trkpt lat="45.32804" lon="1.01966">
        <ele>149</ele>
        <time>2013-09-01T06:34:45Z</time>
      </trkpt>
      <trkpt lat="45.32818" lon="1.01949">
        <ele>151</ele>
        <time>2013-09-01T06:34:51Z</time>
      </trkpt>
      <trkpt lat="45.32817" lon="1.01914">
        <ele>152</ele>
        <time>2013-09-01T06:35:00Z</time>
      </trkpt>
      <trkpt lat="45.32812" lon="1.01886">
        <ele>154</ele>
        <time>2013-09-01T06:35:08Z</time>
      </trkpt>
      <trkpt lat="45.32807" lon="1.01864">
        <ele>156</ele>
        <time>2013-09-01T06:35:16Z</time>
      </trkpt>
      <trkpt lat="45.32804" lon="1.01841">
        <ele>157</ele>
        <time>2013-09-01T06:35:24Z</time>
      </trkpt>
      <trkpt lat="45.328" lon="1.01822">
        <ele>158</ele>
        <time>2013-09-01T06:35:31Z</time>
      </trkpt>
      <trkpt lat="45.32794" lon="1.01806">
        <ele>160</ele>
        <time>2013-09-01T06:35:38Z</time>
      </trkpt>
      <trkpt lat="45.32786" lon="1.01789">
        <ele>161</ele>
        <time>2013-09-01T06:35:46Z</time>
      </trkpt>
      <trkpt lat="45.32774" lon="1.01772">
        <ele>162</ele>
        <time>2013-09-01T06:35:54Z</time>
      </trkpt>
      <trkpt lat="45.3277" lon="1.0175">
        <ele>163</ele>
        <time>2013-09-01T06:36:02Z</time>
      </trkpt>
      <trkpt lat="45.32764" lon="1.01728">
        <ele>164</ele>
        <time>2013-09-01T06:36:10Z</time>
      </trkpt>
      <trkpt lat="45.32756" lon="1.01702">
        <ele>165</ele>
        <time>2013-09-01T06:36:19Z</time>
      </trkpt>
      <trkpt lat="45.32749" lon="1.01675">
        <ele>166</ele>
        <time>2013-09-01T06:36:28Z</time>
      </trkpt>
      <trkpt lat="45.32746" lon="1.01653">
        <ele>166</ele>
        <time>2013-09-01T06:36:36Z</time>
      </trkpt>
      <trkpt lat="45.32743" lon="1.0163">
        <ele>166</ele>
        <time>2013-09-01T06:36:43Z</time>
      </trkpt>
      <trkpt lat="45.3274" lon="1.01604">
        <ele>167</ele>
        <time>2013-09-01T06:36:50Z</time>
      </trkpt>
      <trkpt lat="45.32736" lon="1.01579">
        <ele>167</ele>
        <time>2013-09-01T06:36:56Z</time>
      </trkpt>
      <trkpt lat="45.32732" lon="1.0156">
        <ele>166</ele>
        <time>2013-09-01T06:37:01Z</time>
      </trkpt>
      <trkpt lat="45.32726" lon="1.0154">
        <ele>165</ele>
        <time>2013-09-01T06:37:08Z</time>
      </trkpt>
      <trkpt lat="45.32713" lon="1.01514">
        <ele>165</ele>
        <time>2013-09-01T06:37:16Z</time>
      </trkpt>
      <trkpt lat="45.32707" lon="1.01496">
        <ele>166</ele>
        <time>2013-09-01T06:37:22Z</time>
      </trkpt>
      <trkpt lat="45.32704" lon="1.01476">
        <ele>165</ele>
        <time>2013-09-01T06:37:28Z</time>
      </trkpt>
      <trkpt lat="45.327" lon="1.01459">
        <ele>166</ele>
        <time>2013-09-01T06:37:34Z</time>
      </trkpt>
      <trkpt lat="45.32698" lon="1.01434">
        <ele>166</ele>
        <time>2013-09-01T06:37:41Z</time>
      </trkpt>
      <trkpt lat="45.32702" lon="1.01405">
        <ele>165</ele>
        <time>2013-09-01T06:37:49Z</time>
      </trkpt>
      <trkpt lat="45.32701" lon="1.01396">
        <ele>165</ele>
        <time>2013-09-01T06:37:51Z</time>
      </trkpt>
      <trkpt lat="45.32704" lon="1.0137">
        <ele>165</ele>
        <time>2013-09-01T06:37:57Z</time>
      </trkpt>
      <trkpt lat="45.32693" lon="1.01364">
        <ele>165</ele>
        <time>2013-09-01T06:38:02Z</time>
      </trkpt>
      <trkpt lat="45.32671" lon="1.01359">
        <ele>166</ele>
        <time>2013-09-01T06:38:11Z</time>
      </trkpt>
      <trkpt lat="45.32649" lon="1.01355">
        <ele>167</ele>
        <time>2013-09-01T06:38:21Z</time>
      </trkpt>
      <trkpt lat="45.32635" lon="1.01351">
        <ele>167</ele>
        <time>2013-09-01T06:38:27Z</time>
      </trkpt>
      <trkpt lat="45.32614" lon="1.01359">
        <ele>168</ele>
        <time>2013-09-01T06:38:35Z</time>
      </trkpt>
      <trkpt lat="45.32591" lon="1.01365">
        <ele>169</ele>
        <time>2013-09-01T06:38:43Z</time>
      </trkpt>
      <trkpt lat="45.32566" lon="1.01367">
        <ele>170</ele>
        <time>2013-09-01T06:38:52Z</time>
      </trkpt>
      <trkpt lat="45.32537" lon="1.01371">
        <ele>170</ele>
        <time>2013-09-01T06:39:01Z</time>
      </trkpt>
      <trkpt lat="45.32514" lon="1.01385">
        <ele>170</ele>
        <time>2013-09-01T06:39:09Z</time>
      </trkpt>
      <trkpt lat="45.32488" lon="1.0141">
        <ele>171</ele>
        <time>2013-09-01T06:39:18Z</time>
      </trkpt>
      <trkpt lat="45.32459" lon="1.01441">
        <ele>172</ele>
        <time>2013-09-01T06:39:28Z</time>
      </trkpt>
      <trkpt lat="45.32435" lon="1.01463">
        <ele>173</ele>
        <time>2013-09-01T06:39:37Z</time>
      </trkpt>
      <trkpt lat="45.32412" lon="1.01478">
        <ele>175</ele>
        <time>2013-09-01T06:39:45Z</time>
      </trkpt>
      <trkpt lat="45.32385" lon="1.01493">
        <ele>177</ele>
        <time>2013-09-01T06:39:55Z</time>
      </trkpt>
      <trkpt lat="45.32364" lon="1.01504">
        <ele>178</ele>
        <time>2013-09-01T06:40:03Z</time>
      </trkpt>
      <trkpt lat="45.32347" lon="1.01512">
        <ele>179</ele>
        <time>2013-09-01T06:40:10Z</time>
      </trkpt>
      <trkpt lat="45.32329" lon="1.01518">
        <ele>180</ele>
        <time>2013-09-01T06:40:18Z</time>
      </trkpt>
      <trkpt lat="45.32314" lon="1.01521">
        <ele>181</ele>
        <time>2013-09-01T06:40:24Z</time>
      </trkpt>
      <trkpt lat="45.32289" lon="1.0152">
        <ele>182</ele>
        <time>2013-09-01T06:40:32Z</time>
      </trkpt>
      <trkpt lat="45.32258" lon="1.01516">
        <ele>181</ele>
        <time>2013-09-01T06:40:41Z</time>
      </trkpt>
      <trkpt lat="45.32247" lon="1.01522">
        <ele>180</ele>
        <time>2013-09-01T06:40:44Z</time>
      </trkpt>
      <trkpt lat="45.32209" lon="1.0154">
        <ele>177</ele>
        <time>2013-09-01T06:40:51Z</time>
      </trkpt>
      <trkpt lat="45.32171" lon="1.01559">
        <ele>176</ele>
        <time>2013-09-01T06:40:58Z</time>
      </trkpt>
      <trkpt lat="45.32161" lon="1.01567">
        <ele>176</ele>
        <time>2013-09-01T06:41:00Z</time>
      </trkpt>
      <trkpt lat="45.32144" lon="1.01597">
        <ele>177</ele>
        <time>2013-09-01T06:41:06Z</time>
      </trkpt>
      <trkpt lat="45.3213" lon="1.01623">
        <ele>177</ele>
        <time>2013-09-01T06:41:12Z</time>
      </trkpt>
      <trkpt lat="45.32119" lon="1.01652">
        <ele>176</ele>
        <time>2013-09-01T06:41:18Z</time>
      </trkpt>
      <trkpt lat="45.32122" lon="1.01677">
        <ele>173</ele>
        <time>2013-09-01T06:41:21Z</time>
      </trkpt>
      <trkpt lat="45.32133" lon="1.01721">
        <ele>171</ele>
        <time>2013-09-01T06:41:27Z</time>
      </trkpt>
      <trkpt lat="45.32133" lon="1.0173">
        <ele>171</ele>
        <time>2013-09-01T06:41:28Z</time>
      </trkpt>
      <trkpt lat="45.32122" lon="1.01748">
        <ele>172</ele>
        <time>2013-09-01T06:41:32Z</time>
      </trkpt>
      <trkpt lat="45.32102" lon="1.01756">
        <ele>174</ele>
        <time>2013-09-01T06:41:39Z</time>
      </trkpt>
      <trkpt lat="45.32076" lon="1.01769">
        <ele>174</ele>
        <time>2013-09-01T06:41:47Z</time>
      </trkpt>
      <trkpt lat="45.32058" lon="1.01777">
        <ele>174</ele>
        <time>2013-09-01T06:41:54Z</time>
      </trkpt>
      <trkpt lat="45.32032" lon="1.01785">
        <ele>173</ele>
        <time>2013-09-01T06:42:02Z</time>
      </trkpt>
      <trkpt lat="45.32014" lon="1.01791">
        <ele>172</ele>
        <time>2013-09-01T06:42:07Z</time>
      </trkpt>
      <trkpt lat="45.32" lon="1.01795">
        <ele>170</ele>
        <time>2013-09-01T06:42:10Z</time>
      </trkpt>
      <trkpt lat="45.3198" lon="1.01801">
        <ele>168</ele>
        <time>2013-09-01T06:42:14Z</time>
      </trkpt>
      <trkpt lat="45.31953" lon="1.01808">
        <ele>165</ele>
        <time>2013-09-01T06:42:19Z</time>
      </trkpt>
      <trkpt lat="45.31926" lon="1.01817">
        <ele>162</ele>
        <time>2013-09-01T06:42:24Z</time>
      </trkpt>
      <trkpt lat="45.31897" lon="1.01825">
        <ele>159</ele>
        <time>2013-09-01T06:42:29Z</time>
      </trkpt>
      <trkpt lat="45.3187" lon="1.01832">
        <ele>156</ele>
        <time>2013-09-01T06:42:33Z</time>
      </trkpt>
      <trkpt lat="45.31847" lon="1.01839">
        <ele>152</ele>
        <time>2013-09-01T06:42:36Z</time>
      </trkpt>
      <trkpt lat="45.3182" lon="1.01846">
        <ele>148</ele>
        <time>2013-09-01T06:42:39Z</time>
      </trkpt>
      <trkpt lat="45.31792" lon="1.01855">
        <ele>145</ele>
        <time>2013-09-01T06:42:42Z</time>
      </trkpt>
      <trkpt lat="45.31774" lon="1.0186">
        <ele>144</ele>
        <time>2013-09-01T06:42:44Z</time>
      </trkpt>
      <trkpt lat="45.31732" lon="1.01873">
        <ele>143</ele>
        <time>2013-09-01T06:42:50Z</time>
      </trkpt>
      <trkpt lat="45.31712" lon="1.01876">
        <ele>142</ele>
        <time>2013-09-01T06:42:55Z</time>
      </trkpt>
      <trkpt lat="45.31708" lon="1.01871">
        <ele>142</ele>
        <time>2013-09-01T06:42:57Z</time>
      </trkpt>
      <trkpt lat="45.31704" lon="1.01826">
        <ele>142</ele>
        <time>2013-09-01T06:43:05Z</time>
      </trkpt>
      <trkpt lat="45.31704" lon="1.01756">
        <ele>140</ele>
        <time>2013-09-01T06:43:15Z</time>
      </trkpt>
      <trkpt lat="45.31705" lon="1.01683">
        <ele>139</ele>
        <time>2013-09-01T06:43:24Z</time>
      </trkpt>
      <trkpt lat="45.31706" lon="1.01594">
        <ele>137</ele>
        <time>2013-09-01T06:43:34Z</time>
      </trkpt>
      <trkpt lat="45.31709" lon="1.01491">
        <ele>136</ele>
        <time>2013-09-01T06:43:45Z</time>
      </trkpt>
      <trkpt lat="45.3171" lon="1.0145">
        <ele>136</ele>
        <time>2013-09-01T06:43:51Z</time>
      </trkpt>
      <trkpt lat="45.31699" lon="1.01421">
        <ele>135</ele>
        <time>2013-09-01T06:43:57Z</time>
      </trkpt>
      <trkpt lat="45.3169" lon="1.01419">
        <ele>134</ele>
        <time>2013-09-01T06:43:59Z</time>
      </trkpt>
      <trkpt lat="45.31667" lon="1.01414">
        <ele>132</ele>
        <time>2013-09-01T06:44:03Z</time>
      </trkpt>
      <trkpt lat="45.31661" lon="1.01413">
        <ele>132</ele>
        <time>2013-09-01T06:44:04Z</time>
      </trkpt>
      <trkpt lat="45.31618" lon="1.01392">
        <ele>129</ele>
        <time>2013-09-01T06:44:12Z</time>
      </trkpt>
      <trkpt lat="45.31576" lon="1.01383">
        <ele>128</ele>
        <time>2013-09-01T06:44:19Z</time>
      </trkpt>
      <trkpt lat="45.31522" lon="1.01371">
        <ele>126</ele>
        <time>2013-09-01T06:44:27Z</time>
      </trkpt>
      <trkpt lat="45.31477" lon="1.01357">
        <ele>126</ele>
        <time>2013-09-01T06:44:34Z</time>
      </trkpt>
      <trkpt lat="45.31464" lon="1.01352">
        <ele>127</ele>
        <time>2013-09-01T06:44:37Z</time>
      </trkpt>
      <trkpt lat="45.31433" lon="1.01333">
        <ele>127</ele>
        <time>2013-09-01T06:44:46Z</time>
      </trkpt>
      <trkpt lat="45.31431" lon="1.01329">
        <ele>127</ele>
        <time>2013-09-01T06:44:47Z</time>
      </trkpt>
      <trkpt lat="45.31437" lon="1.01289">
        <ele>125</ele>
        <time>2013-09-01T06:44:53Z</time>
      </trkpt>
      <trkpt lat="45.31446" lon="1.01222">
        <ele>125</ele>
        <time>2013-09-01T06:45:02Z</time>
      </trkpt>
      <trkpt lat="45.31452" lon="1.01159">
        <ele>126</ele>
        <time>2013-09-01T06:45:11Z</time>
      </trkpt>
      <trkpt lat="45.31455" lon="1.01102">
        <ele>126</ele>
        <time>2013-09-01T06:45:21Z</time>
      </trkpt>
      <trkpt lat="45.31459" lon="1.01054">
        <ele>126</ele>
        <time>2013-09-01T06:45:29Z</time>
      </trkpt>
      <trkpt lat="45.31459" lon="1.01029">
        <ele>127</ele>
        <time>2013-09-01T06:45:33Z</time>
      </trkpt>
      <trkpt lat="45.31455" lon="1.00993">
        <ele>128</ele>
        <time>2013-09-01T06:45:40Z</time>
      </trkpt>
      <trkpt lat="45.31445" lon="1.00963">
        <ele>131</ele>
        <time>2013-09-01T06:45:48Z</time>
      </trkpt>
      <trkpt lat="45.31417" lon="1.0093">
        <ele>133</ele>
        <time>2013-09-01T06:46:00Z</time>
      </trkpt>
      <trkpt lat="45.31399" lon="1.00909">
        <ele>136</ele>
        <time>2013-09-01T06:46:09Z</time>
      </trkpt>
      <trkpt lat="45.31387" lon="1.00896">
        <ele>137</ele>
        <time>2013-09-01T06:46:15Z</time>
      </trkpt>
      <trkpt lat="45.31375" lon="1.0088">
        <ele>138</ele>
        <time>2013-09-01T06:46:22Z</time>
      </trkpt>
      <trkpt lat="45.31358" lon="1.00851">
        <ele>138</ele>
        <time>2013-09-01T06:46:31Z</time>
      </trkpt>
      <trkpt lat="45.31336" lon="1.00811">
        <ele>137</ele>
        <time>2013-09-01T06:46:41Z</time>
      </trkpt>
      <trkpt lat="45.31311" lon="1.00769">
        <ele>137</ele>
        <time>2013-09-01T06:46:52Z</time>
      </trkpt>
      <trkpt lat="45.31291" lon="1.00733">
        <ele>138</ele>
        <time>2013-09-01T06:47:01Z</time>
      </trkpt>
      <trkpt lat="45.31271" lon="1.00713">
        <ele>138</ele>
        <time>2013-09-01T06:47:09Z</time>
      </trkpt>
      <trkpt lat="45.31252" lon="1.00706">
        <ele>140</ele>
        <time>2013-09-01T06:47:17Z</time>
      </trkpt>
      <trkpt lat="45.31231" lon="1.00713">
        <ele>141</ele>
        <time>2013-09-01T06:47:25Z</time>
      </trkpt>
      <trkpt lat="45.31215" lon="1.00724">
        <ele>142</ele>
        <time>2013-09-01T06:47:32Z</time>
      </trkpt>
      <trkpt lat="45.31203" lon="1.00742">
        <ele>144</ele>
        <time>2013-09-01T06:47:40Z</time>
      </trkpt>
      <trkpt lat="45.31192" lon="1.00762">
        <ele>145</ele>
        <time>2013-09-01T06:47:47Z</time>
      </trkpt>
      <trkpt lat="45.31172" lon="1.00791">
        <ele>147</ele>
        <time>2013-09-01T06:47:58Z</time>
      </trkpt>
      <trkpt lat="45.31158" lon="1.00809">
        <ele>148</ele>
        <time>2013-09-01T06:48:06Z</time>
      </trkpt>
      <trkpt lat="45.31137" lon="1.00819">
        <ele>150</ele>
        <time>2013-09-01T06:48:15Z</time>
      </trkpt>
      <trkpt lat="45.31134" lon="1.00807">
        <ele>150</ele>
        <time>2013-09-01T06:48:19Z</time>
      </trkpt>
      <trkpt lat="45.31143" lon="1.00767">
        <ele>151</ele>
        <time>2013-09-01T06:48:29Z</time>
      </trkpt>
      <trkpt lat="45.31149" lon="1.00737">
        <ele>152</ele>
        <time>2013-09-01T06:48:36Z</time>
      </trkpt>
      <trkpt lat="45.31165" lon="1.00711">
        <ele>152</ele>
        <time>2013-09-01T06:48:43Z</time>
      </trkpt>
      <trkpt lat="45.31191" lon="1.00682">
        <ele>152</ele>
        <time>2013-09-01T06:48:52Z</time>
      </trkpt>
      <trkpt lat="45.31198" lon="1.00659">
        <ele>153</ele>
        <time>2013-09-01T06:48:57Z</time>
      </trkpt>
      <trkpt lat="45.312" lon="1.00623">
        <ele>156</ele>
        <time>2013-09-01T06:49:05Z</time>
      </trkpt>
      <trkpt lat="45.312" lon="1.00586">
        <ele>158</ele>
        <time>2013-09-01T06:49:15Z</time>
      </trkpt>
      <trkpt lat="45.31191" lon="1.00565">
        <ele>160</ele>
        <time>2013-09-01T06:49:22Z</time>
      </trkpt>
      <trkpt lat="45.31175" lon="1.00545">
        <ele>162</ele>
        <time>2013-09-01T06:49:30Z</time>
      </trkpt>
      <trkpt lat="45.31161" lon="1.00522">
        <ele>164</ele>
        <time>2013-09-01T06:49:39Z</time>
      </trkpt>
      <trkpt lat="45.31144" lon="1.00497">
        <ele>165</ele>
        <time>2013-09-01T06:49:48Z</time>
      </trkpt>
      <trkpt lat="45.31124" lon="1.00473">
        <ele>167</ele>
        <time>2013-09-01T06:49:57Z</time>
      </trkpt>
      <trkpt lat="45.31106" lon="1.00464">
        <ele>169</ele>
        <time>2013-09-01T06:50:05Z</time>
      </trkpt>
      <trkpt lat="45.3108" lon="1.0046">
        <ele>171</ele>
        <time>2013-09-01T06:50:15Z</time>
      </trkpt>
      <trkpt lat="45.31053" lon="1.00464">
        <ele>172</ele>
        <time>2013-09-01T06:50:25Z</time>
      </trkpt>
      <trkpt lat="45.31027" lon="1.00466">
        <ele>173</ele>
        <time>2013-09-01T06:50:35Z</time>
      </trkpt>
      <trkpt lat="45.31007" lon="1.00465">
        <ele>174</ele>
        <time>2013-09-01T06:50:42Z</time>
      </trkpt>
      <trkpt lat="45.30986" lon="1.00462">
        <ele>175</ele>
        <time>2013-09-01T06:50:50Z</time>
      </trkpt>
      <trkpt lat="45.30964" lon="1.00459">
        <ele>176</ele>
        <time>2013-09-01T06:50:59Z</time>
      </trkpt>
      <trkpt lat="45.30943" lon="1.00452">
        <ele>177</ele>
        <time>2013-09-01T06:51:07Z</time>
      </trkpt>
      <trkpt lat="45.30924" lon="1.00444">
        <ele>178</ele>
        <time>2013-09-01T06:51:15Z</time>
      </trkpt>
      <trkpt lat="45.30904" lon="1.00434">
        <ele>180</ele>
        <time>2013-09-01T06:51:24Z</time>
      </trkpt>
      <trkpt lat="45.30885" lon="1.00423">
        <ele>181</ele>
        <time>2013-09-01T06:51:33Z</time>
      </trkpt>
      <trkpt lat="45.30858" lon="1.00417">
        <ele>182</ele>
        <time>2013-09-01T06:51:44Z</time>
      </trkpt>
      <trkpt lat="45.30843" lon="1.00415">
        <ele>183</ele>
        <time>2013-09-01T06:51:51Z</time>
      </trkpt>
      <trkpt lat="45.30837" lon="1.00398">
        <ele>183</ele>
        <time>2013-09-01T06:51:57Z</time>
      </trkpt>
      <trkpt lat="45.30832" lon="1.00368">
        <ele>183</ele>
        <time>2013-09-01T06:52:06Z</time>
      </trkpt>
      <trkpt lat="45.30826" lon="1.00338">
        <ele>181</ele>
        <time>2013-09-01T06:52:13Z</time>
      </trkpt>
      <trkpt lat="45.30822" lon="1.003">
        <ele>180</ele>
        <time>2013-09-01T06:52:20Z</time>
      </trkpt>
      <trkpt lat="45.30822" lon="1.00261">
        <ele>179</ele>
        <time>2013-09-01T06:52:27Z</time>
      </trkpt>
      <trkpt lat="45.3083" lon="1.00217">
        <ele>176</ele>
        <time>2013-09-01T06:52:34Z</time>
      </trkpt>
      <trkpt lat="45.30834" lon="1.00196">
        <ele>175</ele>
        <time>2013-09-01T06:52:37Z</time>
      </trkpt>
      <trkpt lat="45.30851" lon="1.00159">
        <ele>171</ele>
        <time>2013-09-01T06:52:43Z</time>
      </trkpt>
      <trkpt lat="45.30868" lon="1.00125">
        <ele>167</ele>
        <time>2013-09-01T06:52:47Z</time>
      </trkpt>
      <trkpt lat="45.30877" lon="1.00104">
        <ele>164</ele>
        <time>2013-09-01T06:52:49Z</time>
      </trkpt>
      <trkpt lat="45.30898" lon="1.00058">
        <ele>160</ele>
        <time>2013-09-01T06:52:53Z</time>
      </trkpt>
      <trkpt lat="45.30915" lon="1.00023">
        <ele>158</ele>
        <time>2013-09-01T06:52:56Z</time>
      </trkpt>
      <trkpt lat="45.30938" lon="0.99975">
        <ele>155</ele>
        <time>2013-09-01T06:53:00Z</time>
      </trkpt>
      <trkpt lat="45.30955" lon="0.9994">
        <ele>153</ele>
        <time>2013-09-01T06:53:03Z</time>
      </trkpt>
      <trkpt lat="45.30972" lon="0.99902">
        <ele>156</ele>
        <time>2013-09-01T06:53:07Z</time>
      </trkpt>
      <trkpt lat="45.30974" lon="0.99897">
        <ele>156</ele>
        <time>2013-09-01T06:53:08Z</time>
      </trkpt>
      <trkpt lat="45.30969" lon="0.99886">
        <ele>156</ele>
        <time>2013-09-01T06:53:13Z</time>
      </trkpt>
      <trkpt lat="45.30966" lon="0.99887">
        <ele>155</ele>
        <time>2013-09-01T06:53:14Z</time>
      </trkpt>
      <trkpt lat="45.30937" lon="0.9989">
        <ele>152</ele>
        <time>2013-09-01T06:53:20Z</time>
      </trkpt>
      <trkpt lat="45.30919" lon="0.99895">
        <ele>151</ele>
        <time>2013-09-01T06:53:23Z</time>
      </trkpt>
      <trkpt lat="45.30891" lon="0.99901">
        <ele>149</ele>
        <time>2013-09-01T06:53:27Z</time>
      </trkpt>
      <trkpt lat="45.30855" lon="0.99903">
        <ele>147</ele>
        <time>2013-09-01T06:53:32Z</time>
      </trkpt>
      <trkpt lat="45.30805" lon="0.99901">
        <ele>145</ele>
        <time>2013-09-01T06:53:39Z</time>
      </trkpt>
      <trkpt lat="45.30768" lon="0.99885">
        <ele>145</ele>
        <time>2013-09-01T06:53:45Z</time>
      </trkpt>
      <trkpt lat="45.30725" lon="0.99866">
        <ele>143</ele>
        <time>2013-09-01T06:53:53Z</time>
      </trkpt>
      <trkpt lat="45.30689" lon="0.99845">
        <ele>140</ele>
        <time>2013-09-01T06:53:59Z</time>
      </trkpt>
      <trkpt lat="45.30683" lon="0.99842">
        <ele>140</ele>
        <time>2013-09-01T06:54:00Z</time>
      </trkpt>
      <trkpt lat="45.30643" lon="0.99845">
        <ele>139</ele>
        <time>2013-09-01T06:54:06Z</time>
      </trkpt>
      <trkpt lat="45.30613" lon="0.9986">
        <ele>137</ele>
        <time>2013-09-01T06:54:11Z</time>
      </trkpt>
      <trkpt lat="45.30593" lon="0.9986">
        <ele>137</ele>
        <time>2013-09-01T06:54:15Z</time>
      </trkpt>
      <trkpt lat="45.30581" lon="0.99865">
        <ele>137</ele>
        <time>2013-09-01T06:54:18Z</time>
      </trkpt>
      <trkpt lat="45.30562" lon="0.99897">
        <ele>138</ele>
        <time>2013-09-01T06:54:26Z</time>
      </trkpt>
      <trkpt lat="45.30566" lon="0.99892">
        <ele>143.2</ele>
      </trkpt>
      <trkpt lat="45.30544" lon="0.99944">
        <ele>143.5</ele>
      </trkpt>
      <trkpt lat="45.30544" lon="0.99944">
        <ele>143.5</ele>
      </trkpt>
      <trkpt lat="45.30543" lon="0.99941">
        <ele>139</ele>
        <time>2013-09-01T07:00:31Z</time>
      </trkpt>
      <trkpt lat="45.30531" lon="0.9997">
        <ele>139</ele>
        <time>2013-09-01T07:00:38Z</time>
      </trkpt>
      <trkpt lat="45.3052" lon="0.99994">
        <ele>140</ele>
        <time>2013-09-01T07:00:45Z</time>
      </trkpt>
      <trkpt lat="45.30505" lon="1.00029">
        <ele>140</ele>
        <time>2013-09-01T07:00:54Z</time>
      </trkpt>
      <trkpt lat="45.30501" lon="1.00055">
        <ele>140</ele>
        <time>2013-09-01T07:01:01Z</time>
      </trkpt>
      <trkpt lat="45.30504" lon="1.00093">
        <ele>141</ele>
        <time>2013-09-01T07:01:11Z</time>
      </trkpt>
      <trkpt lat="45.30511" lon="1.00118">
        <ele>141</ele>
        <time>2013-09-01T07:01:18Z</time>
      </trkpt>
      <trkpt lat="45.3052" lon="1.00147">
        <ele>142</ele>
        <time>2013-09-01T07:01:27Z</time>
      </trkpt>
      <trkpt lat="45.30524" lon="1.00174">
        <ele>143</ele>
        <time>2013-09-01T07:01:35Z</time>
      </trkpt>
      <trkpt lat="45.30518" lon="1.00197">
        <ele>143</ele>
        <time>2013-09-01T07:01:41Z</time>
      </trkpt>
      <trkpt lat="45.30508" lon="1.00221">
        <ele>143</ele>
        <time>2013-09-01T07:01:47Z</time>
      </trkpt>
      <trkpt lat="45.30498" lon="1.0024">
        <ele>144</ele>
        <time>2013-09-01T07:01:53Z</time>
      </trkpt>
      <trkpt lat="45.30486" lon="1.00264">
        <ele>144</ele>
        <time>2013-09-01T07:02:00Z</time>
      </trkpt>
      <trkpt lat="45.30473" lon="1.00289">
        <ele>145</ele>
        <time>2013-09-01T07:02:07Z</time>
      </trkpt>
      <trkpt lat="45.30451" lon="1.00331">
        <ele>146</ele>
        <time>2013-09-01T07:02:17Z</time>
      </trkpt>
      <trkpt lat="45.30437" lon="1.00356">
        <ele>147</ele>
        <time>2013-09-01T07:02:26Z</time>
      </trkpt>
      <trkpt lat="45.30425" lon="1.00373">
        <ele>146</ele>
        <time>2013-09-01T07:02:33Z</time>
      </trkpt>
      <trkpt lat="45.30406" lon="1.00389">
        <ele>147</ele>
        <time>2013-09-01T07:02:39Z</time>
      </trkpt>
      <trkpt lat="45.30384" lon="1.00406">
        <ele>147</ele>
        <time>2013-09-01T07:02:47Z</time>
      </trkpt>
      <trkpt lat="45.30363" lon="1.00424">
        <ele>148</ele>
        <time>2013-09-01T07:02:55Z</time>
      </trkpt>
      <trkpt lat="45.3035" lon="1.00444">
        <ele>148</ele>
        <time>2013-09-01T07:03:02Z</time>
      </trkpt>
      <trkpt lat="45.30336" lon="1.00465">
        <ele>148</ele>
        <time>2013-09-01T07:03:09Z</time>
      </trkpt>
      <trkpt lat="45.30326" lon="1.00483">
        <ele>149</ele>
        <time>2013-09-01T07:03:14Z</time>
      </trkpt>
      <trkpt lat="45.30312" lon="1.0051">
        <ele>149</ele>
        <time>2013-09-01T07:03:22Z</time>
      </trkpt>
      <trkpt lat="45.30299" lon="1.00529">
        <ele>149</ele>
        <time>2013-09-01T07:03:28Z</time>
      </trkpt>
      <trkpt lat="45.30277" lon="1.00558">
        <ele>150</ele>
        <time>2013-09-01T07:03:36Z</time>
      </trkpt>
      <trkpt lat="45.3026" lon="1.00579">
        <ele>150</ele>
        <time>2013-09-01T07:03:42Z</time>
      </trkpt>
      <trkpt lat="45.30242" lon="1.00602">
        <ele>150</ele>
        <time>2013-09-01T07:03:50Z</time>
      </trkpt>
      <trkpt lat="45.30235" lon="1.0062">
        <ele>151</ele>
        <time>2013-09-01T07:03:55Z</time>
      </trkpt>
      <trkpt lat="45.30226" lon="1.00657">
        <ele>152</ele>
        <time>2013-09-01T07:04:02Z</time>
      </trkpt>
      <trkpt lat="45.30231" lon="1.00682">
        <ele>152</ele>
        <time>2013-09-01T07:04:08Z</time>
      </trkpt>
      <trkpt lat="45.30245" lon="1.00719">
        <ele>152</ele>
        <time>2013-09-01T07:04:17Z</time>
      </trkpt>
      <trkpt lat="45.30263" lon="1.00746">
        <ele>152</ele>
        <time>2013-09-01T07:04:24Z</time>
      </trkpt>
      <trkpt lat="45.30272" lon="1.00763">
        <ele>153</ele>
        <time>2013-09-01T07:04:29Z</time>
      </trkpt>
      <trkpt lat="45.30278" lon="1.00789">
        <ele>154</ele>
        <time>2013-09-01T07:04:35Z</time>
      </trkpt>
      <trkpt lat="45.30277" lon="1.00799">
        <ele>154</ele>
        <time>2013-09-01T07:04:37Z</time>
      </trkpt>
      <trkpt lat="45.30275" lon="1.00813">
        <ele>154</ele>
        <time>2013-09-01T07:04:41Z</time>
      </trkpt>
      <trkpt lat="45.30275" lon="1.00817">
        <ele>154</ele>
        <time>2013-09-01T07:04:42Z</time>
      </trkpt>
      <trkpt lat="45.30265" lon="1.0084">
        <ele>154</ele>
        <time>2013-09-01T07:04:48Z</time>
      </trkpt>
      <trkpt lat="45.30253" lon="1.00866">
        <ele>155</ele>
        <time>2013-09-01T07:04:55Z</time>
      </trkpt>
      <trkpt lat="45.3024" lon="1.00883">
        <ele>155</ele>
        <time>2013-09-01T07:05:01Z</time>
      </trkpt>
      <trkpt lat="45.30217" lon="1.00904">
        <ele>156</ele>
        <time>2013-09-01T07:05:09Z</time>
      </trkpt>
      <trkpt lat="45.30201" lon="1.0092">
        <ele>156</ele>
        <time>2013-09-01T07:05:15Z</time>
      </trkpt>
      <trkpt lat="45.30185" lon="1.00938">
        <ele>157</ele>
        <time>2013-09-01T07:05:21Z</time>
      </trkpt>
      <trkpt lat="45.30171" lon="1.00962">
        <ele>157</ele>
        <time>2013-09-01T07:05:27Z</time>
      </trkpt>
      <trkpt lat="45.30153" lon="1.00978">
        <ele>157</ele>
        <time>2013-09-01T07:05:34Z</time>
      </trkpt>
      <trkpt lat="45.30147" lon="1.00979">
        <ele>158</ele>
        <time>2013-09-01T07:05:36Z</time>
      </trkpt>
      <trkpt lat="45.30135" lon="1.00986">
        <ele>158</ele>
        <time>2013-09-01T07:05:43Z</time>
      </trkpt>
      <trkpt lat="45.30122" lon="1.00993">
        <ele>158</ele>
        <time>2013-09-01T07:05:50Z</time>
      </trkpt>
      <trkpt lat="45.30119" lon="1.00993">
        <ele>158</ele>
        <time>2013-09-01T07:05:51Z</time>
      </trkpt>
      <trkpt lat="45.30106" lon="1.00992">
        <ele>158</ele>
        <time>2013-09-01T07:05:58Z</time>
      </trkpt>
      <trkpt lat="45.30093" lon="1.00993">
        <ele>159</ele>
        <time>2013-09-01T07:06:05Z</time>
      </trkpt>
      <trkpt lat="45.30079" lon="1.00998">
        <ele>160</ele>
        <time>2013-09-01T07:06:12Z</time>
      </trkpt>
      <trkpt lat="45.30076" lon="1.00999">
        <ele>160</ele>
        <time>2013-09-01T07:06:13Z</time>
      </trkpt>
      <trkpt lat="45.30062" lon="1.01007">
        <ele>160</ele>
        <time>2013-09-01T07:06:20Z</time>
      </trkpt>
      <trkpt lat="45.30058" lon="1.01008">
        <ele>160</ele>
        <time>2013-09-01T07:06:22Z</time>
      </trkpt>
      <trkpt lat="45.30048" lon="1.01014">
        <ele>160</ele>
        <time>2013-09-01T07:06:28Z</time>
      </trkpt>
      <trkpt lat="45.30041" lon="1.01018">
        <ele>160</ele>
        <time>2013-09-01T07:06:30Z</time>
      </trkpt>
      <trkpt lat="45.30022" lon="1.01021">
        <ele>161</ele>
        <time>2013-09-01T07:06:37Z</time>
      </trkpt>
      <trkpt lat="45.30017" lon="1.01028">
        <ele>161</ele>
        <time>2013-09-01T07:06:40Z</time>
      </trkpt>
      <trkpt lat="45.30008" lon="1.01039">
        <ele>161</ele>
        <time>2013-09-01T07:06:47Z</time>
      </trkpt>
      <trkpt lat="45.29998" lon="1.0105">
        <ele>161</ele>
        <time>2013-09-01T07:06:53Z</time>
      </trkpt>
      <trkpt lat="45.29993" lon="1.01053">
        <ele>162</ele>
        <time>2013-09-01T07:06:57Z</time>
      </trkpt>
      <trkpt lat="45.29988" lon="1.01058">
        <ele>162</ele>
        <time>2013-09-01T07:07:00Z</time>
      </trkpt>
      <trkpt lat="45.29975" lon="1.01082">
        <ele>162</ele>
        <time>2013-09-01T07:07:07Z</time>
      </trkpt>
      <trkpt lat="45.29979" lon="1.01083">
        <ele>162</ele>
        <time>2013-09-01T07:07:08Z</time>
      </trkpt>
      <trkpt lat="45.29974" lon="1.01099">
        <ele>162</ele>
        <time>2013-09-01T07:07:14Z</time>
      </trkpt>
      <trkpt lat="45.29971" lon="1.01117">
        <ele>162</ele>
        <time>2013-09-01T07:07:19Z</time>
      </trkpt>
      <trkpt lat="45.29966" lon="1.01131">
        <ele>163</ele>
        <time>2013-09-01T07:07:24Z</time>
      </trkpt>
      <trkpt lat="45.29966" lon="1.01137">
        <ele>162</ele>
        <time>2013-09-01T07:07:26Z</time>
      </trkpt>
      <trkpt lat="45.29956" lon="1.01156">
        <ele>163</ele>
        <time>2013-09-01T07:07:34Z</time>
      </trkpt>
      <trkpt lat="45.29945" lon="1.01173">
        <ele>163</ele>
        <time>2013-09-01T07:07:41Z</time>
      </trkpt>
      <trkpt lat="45.29943" lon="1.01174">
        <ele>163</ele>
        <time>2013-09-01T07:07:42Z</time>
      </trkpt>
      <trkpt lat="45.29926" lon="1.01174">
        <ele>165</ele>
        <time>2013-09-01T07:07:50Z</time>
      </trkpt>
      <trkpt lat="45.29915" lon="1.01175">
        <ele>165</ele>
        <time>2013-09-01T07:07:55Z</time>
      </trkpt>
      <trkpt lat="45.29906" lon="1.01171">
        <ele>165</ele>
        <time>2013-09-01T07:08:00Z</time>
      </trkpt>
      <trkpt lat="45.29896" lon="1.0116">
        <ele>165</ele>
        <time>2013-09-01T07:08:08Z</time>
      </trkpt>
      <trkpt lat="45.29892" lon="1.01157">
        <ele>165</ele>
        <time>2013-09-01T07:08:11Z</time>
      </trkpt>
      <trkpt lat="45.29884" lon="1.01151">
        <ele>165</ele>
        <time>2013-09-01T07:08:16Z</time>
      </trkpt>
      <trkpt lat="45.29874" lon="1.0114">
        <ele>165</ele>
        <time>2013-09-01T07:08:23Z</time>
      </trkpt>
      <trkpt lat="45.29852" lon="1.01141">
        <ele>165</ele>
        <time>2013-09-01T07:08:28Z</time>
      </trkpt>
      <trkpt lat="45.29839" lon="1.01141">
        <ele>166</ele>
        <time>2013-09-01T07:08:35Z</time>
      </trkpt>
      <trkpt lat="45.29828" lon="1.01144">
        <ele>167</ele>
        <time>2013-09-01T07:08:41Z</time>
      </trkpt>
      <trkpt lat="45.29822" lon="1.01148">
        <ele>167</ele>
        <time>2013-09-01T07:08:44Z</time>
      </trkpt>
      <trkpt lat="45.2981" lon="1.01161">
        <ele>167</ele>
        <time>2013-09-01T07:08:51Z</time>
      </trkpt>
      <trkpt lat="45.29797" lon="1.01178">
        <ele>167</ele>
        <time>2013-09-01T07:08:58Z</time>
      </trkpt>
      <trkpt lat="45.29784" lon="1.01195">
        <ele>167</ele>
        <time>2013-09-01T07:09:05Z</time>
      </trkpt>
      <trkpt lat="45.29778" lon="1.01203">
        <ele>168</ele>
        <time>2013-09-01T07:09:07Z</time>
      </trkpt>
      <trkpt lat="45.2977" lon="1.01219">
        <ele>168</ele>
        <time>2013-09-01T07:09:14Z</time>
      </trkpt>
      <trkpt lat="45.2977" lon="1.01221">
        <ele>168</ele>
        <time>2013-09-01T07:09:15Z</time>
      </trkpt>
      <trkpt lat="45.29764" lon="1.01227">
        <ele>168</ele>
        <time>2013-09-01T07:09:18Z</time>
      </trkpt>
      <trkpt lat="45.29753" lon="1.01237">
        <ele>168</ele>
        <time>2013-09-01T07:09:24Z</time>
      </trkpt>
      <trkpt lat="45.29747" lon="1.01244">
        <ele>169</ele>
        <time>2013-09-01T07:09:28Z</time>
      </trkpt>
      <trkpt lat="45.29743" lon="1.01254">
        <ele>169</ele>
        <time>2013-09-01T07:09:32Z</time>
      </trkpt>
      <trkpt lat="45.29747" lon="1.01277">
        <ele>170</ele>
        <time>2013-09-01T07:09:37Z</time>
      </trkpt>
      <trkpt lat="45.29758" lon="1.01288">
        <ele>171</ele>
        <time>2013-09-01T07:09:45Z</time>
      </trkpt>
      <trkpt lat="45.29757" lon="1.01288">
        <ele>172</ele>
        <time>2013-09-01T07:09:46Z</time>
      </trkpt>
      <trkpt lat="45.29774" lon="1.0128">
        <ele>173</ele>
        <time>2013-09-01T07:09:53Z</time>
      </trkpt>
      <trkpt lat="45.29786" lon="1.01272">
        <ele>174</ele>
        <time>2013-09-01T07:10:00Z</time>
      </trkpt>
      <trkpt lat="45.29796" lon="1.01266">
        <ele>175</ele>
        <time>2013-09-01T07:10:06Z</time>
      </trkpt>
      <trkpt lat="45.29804" lon="1.01258">
        <ele>177</ele>
        <time>2013-09-01T07:10:12Z</time>
      </trkpt>
      <trkpt lat="45.29815" lon="1.01252">
        <ele>178</ele>
        <time>2013-09-01T07:10:18Z</time>
      </trkpt>
      <trkpt lat="45.29828" lon="1.0125">
        <ele>179</ele>
        <time>2013-09-01T07:10:25Z</time>
      </trkpt>
      <trkpt lat="45.29838" lon="1.01255">
        <ele>181</ele>
        <time>2013-09-01T07:10:32Z</time>
      </trkpt>
      <trkpt lat="45.29854" lon="1.01268">
        <ele>183</ele>
        <time>2013-09-01T07:10:42Z</time>
      </trkpt>
      <trkpt lat="45.2986" lon="1.01277">
        <ele>184</ele>
        <time>2013-09-01T07:10:48Z</time>
      </trkpt>
      <trkpt lat="45.29866" lon="1.01289">
        <ele>186</ele>
        <time>2013-09-01T07:10:54Z</time>
      </trkpt>
      <trkpt lat="45.29867" lon="1.01295">
        <ele>186</ele>
        <time>2013-09-01T07:10:57Z</time>
      </trkpt>
      <trkpt lat="45.29873" lon="1.01304">
        <ele>187</ele>
        <time>2013-09-01T07:11:02Z</time>
      </trkpt>
      <trkpt lat="45.29878" lon="1.01316">
        <ele>188</ele>
        <time>2013-09-01T07:11:07Z</time>
      </trkpt>
      <trkpt lat="45.29887" lon="1.01332">
        <ele>189</ele>
        <time>2013-09-01T07:11:16Z</time>
      </trkpt>
      <trkpt lat="45.29895" lon="1.01344">
        <ele>189</ele>
        <time>2013-09-01T07:11:23Z</time>
      </trkpt>
      <trkpt lat="45.29902" lon="1.01354">
        <ele>190</ele>
        <time>2013-09-01T07:11:29Z</time>
      </trkpt>
      <trkpt lat="45.29907" lon="1.01366">
        <ele>191</ele>
        <time>2013-09-01T07:11:35Z</time>
      </trkpt>
      <trkpt lat="45.29921" lon="1.01379">
        <ele>193</ele>
        <time>2013-09-01T07:11:44Z</time>
      </trkpt>
      <trkpt lat="45.29934" lon="1.01389">
        <ele>193</ele>
        <time>2013-09-01T07:11:52Z</time>
      </trkpt>
      <trkpt lat="45.29942" lon="1.01398">
        <ele>195</ele>
        <time>2013-09-01T07:11:58Z</time>
      </trkpt>
      <trkpt lat="45.29961" lon="1.01414">
        <ele>196</ele>
        <time>2013-09-01T07:12:09Z</time>
      </trkpt>
      <trkpt lat="45.29976" lon="1.01422">
        <ele>197</ele>
        <time>2013-09-01T07:12:18Z</time>
      </trkpt>
      <trkpt lat="45.2999" lon="1.01427">
        <ele>198</ele>
        <time>2013-09-01T07:12:26Z</time>
      </trkpt>
      <trkpt lat="45.30005" lon="1.01435">
        <ele>200</ele>
        <time>2013-09-01T07:12:35Z</time>
      </trkpt>
      <trkpt lat="45.30017" lon="1.0144">
        <ele>201</ele>
        <time>2013-09-01T07:12:43Z</time>
      </trkpt>
      <trkpt lat="45.30031" lon="1.01444">
        <ele>202</ele>
        <time>2013-09-01T07:12:51Z</time>
      </trkpt>
      <trkpt lat="45.30046" lon="1.01447">
        <ele>202</ele>
        <time>2013-09-01T07:12:59Z</time>
      </trkpt>
      <trkpt lat="45.30058" lon="1.01452">
        <ele>203</ele>
        <time>2013-09-01T07:13:06Z</time>
      </trkpt>
      <trkpt lat="45.30072" lon="1.01455">
        <ele>205</ele>
        <time>2013-09-01T07:13:14Z</time>
      </trkpt>
      <trkpt lat="45.30096" lon="1.01461">
        <ele>206</ele>
        <time>2013-09-01T07:13:23Z</time>
      </trkpt>
      <trkpt lat="45.30111" lon="1.01466">
        <ele>208</ele>
        <time>2013-09-01T07:13:31Z</time>
      </trkpt>
      <trkpt lat="45.30123" lon="1.01472">
        <ele>208</ele>
        <time>2013-09-01T07:13:38Z</time>
      </trkpt>
      <trkpt lat="45.30139" lon="1.01477">
        <ele>209</ele>
        <time>2013-09-01T07:13:46Z</time>
      </trkpt>
      <trkpt lat="45.30154" lon="1.01479">
        <ele>210</ele>
        <time>2013-09-01T07:13:53Z</time>
      </trkpt>
      <trkpt lat="45.3017" lon="1.01475">
        <ele>211</ele>
        <time>2013-09-01T07:14:01Z</time>
      </trkpt>
      <trkpt lat="45.30181" lon="1.01474">
        <ele>211</ele>
        <time>2013-09-01T07:14:07Z</time>
      </trkpt>
      <trkpt lat="45.30195" lon="1.01466">
        <ele>212</ele>
        <time>2013-09-01T07:14:16Z</time>
      </trkpt>
      <trkpt lat="45.30208" lon="1.01463">
        <ele>212</ele>
        <time>2013-09-01T07:14:23Z</time>
      </trkpt>
      <trkpt lat="45.30216" lon="1.01462">
        <ele>213</ele>
        <time>2013-09-01T07:14:30Z</time>
      </trkpt>
      <trkpt lat="45.30223" lon="1.01469">
        <ele>213</ele>
        <time>2013-09-01T07:16:47Z</time>
      </trkpt>
      <trkpt lat="45.30224" lon="1.0147">
        <ele>213</ele>
        <time>2013-09-01T07:16:48Z</time>
      </trkpt>
      <trkpt lat="45.30235" lon="1.01483">
        <ele>214</ele>
        <time>2013-09-01T07:17:00Z</time>
      </trkpt>
      <trkpt lat="45.3024" lon="1.01487">
        <ele>214</ele>
        <time>2013-09-01T07:17:04Z</time>
      </trkpt>
      <trkpt lat="45.30255" lon="1.01499">
        <ele>214</ele>
        <time>2013-09-01T07:17:14Z</time>
      </trkpt>
      <trkpt lat="45.30272" lon="1.01515">
        <ele>213</ele>
        <time>2013-09-01T07:17:23Z</time>
      </trkpt>
      <trkpt lat="45.30283" lon="1.01529">
        <ele>212</ele>
        <time>2013-09-01T07:17:28Z</time>
      </trkpt>
      <trkpt lat="45.30297" lon="1.01545">
        <ele>211</ele>
        <time>2013-09-01T07:17:34Z</time>
      </trkpt>
      <trkpt lat="45.30315" lon="1.0156">
        <ele>210</ele>
        <time>2013-09-01T07:17:38Z</time>
      </trkpt>
      <trkpt lat="45.30362" lon="1.01576">
        <ele>209</ele>
        <time>2013-09-01T07:17:47Z</time>
      </trkpt>
      <trkpt lat="45.30396" lon="1.01586">
        <ele>208</ele>
        <time>2013-09-01T07:17:56Z</time>
      </trkpt>
      <trkpt lat="45.30406" lon="1.01596">
        <ele>209</ele>
        <time>2013-09-01T07:18:01Z</time>
      </trkpt>
      <trkpt lat="45.30427" lon="1.01605">
        <ele>208</ele>
        <time>2013-09-01T07:18:10Z</time>
      </trkpt>
      <trkpt lat="45.30453" lon="1.01611">
        <ele>206</ele>
        <time>2013-09-01T07:18:17Z</time>
      </trkpt>
      <trkpt lat="45.30468" lon="1.01614">
        <ele>205</ele>
        <time>2013-09-01T07:18:21Z</time>
      </trkpt>
      <trkpt lat="45.30497" lon="1.01619">
        <ele>203</ele>
        <time>2013-09-01T07:18:29Z</time>
      </trkpt>
      <trkpt lat="45.30522" lon="1.01622">
        <ele>202</ele>
        <time>2013-09-01T07:18:36Z</time>
      </trkpt>
      <trkpt lat="45.30538" lon="1.01623">
        <ele>200</ele>
        <time>2013-09-01T07:18:40Z</time>
      </trkpt>
      <trkpt lat="45.30565" lon="1.01621">
        <ele>198</ele>
        <time>2013-09-01T07:18:46Z</time>
      </trkpt>
      <trkpt lat="45.306" lon="1.01622">
        <ele>194</ele>
        <time>2013-09-01T07:18:53Z</time>
      </trkpt>
      <trkpt lat="45.30607" lon="1.01621">
        <ele>192</ele>
        <time>2013-09-01T07:18:55Z</time>
      </trkpt>
      <trkpt lat="45.30643" lon="1.01626">
        <ele>189</ele>
        <time>2013-09-01T07:19:02Z</time>
      </trkpt>
      <trkpt lat="45.30655" lon="1.0163">
        <ele>188</ele>
        <time>2013-09-01T07:19:06Z</time>
      </trkpt>
      <trkpt lat="45.30655" lon="1.0165">
        <ele>186</ele>
        <time>2013-09-01T07:19:11Z</time>
      </trkpt>
      <trkpt lat="45.30651" lon="1.01667">
        <ele>185</ele>
        <time>2013-09-01T07:19:14Z</time>
      </trkpt>
      <trkpt lat="45.30651" lon="1.01681">
        <ele>184</ele>
        <time>2013-09-01T07:19:16Z</time>
      </trkpt>
      <trkpt lat="45.30662" lon="1.01705">
        <ele>183</ele>
        <time>2013-09-01T07:19:20Z</time>
      </trkpt>
      <trkpt lat="45.30672" lon="1.01711">
        <ele>182</ele>
        <time>2013-09-01T07:19:22Z</time>
      </trkpt>
      <trkpt lat="45.30688" lon="1.01727">
        <ele>183</ele>
        <time>2013-09-01T07:19:27Z</time>
      </trkpt>
      <trkpt lat="45.30688" lon="1.01733">
        <ele>184</ele>
        <time>2013-09-01T07:19:29Z</time>
      </trkpt>
      <trkpt lat="45.30682" lon="1.01741">
        <ele>185</ele>
        <time>2013-09-01T07:19:35Z</time>
      </trkpt>
      <trkpt lat="45.30672" lon="1.01759">
        <ele>188</ele>
        <time>2013-09-01T07:19:45Z</time>
      </trkpt>
      <trkpt lat="45.30666" lon="1.01775">
        <ele>189</ele>
        <time>2013-09-01T07:19:52Z</time>
      </trkpt>
      <trkpt lat="45.30652" lon="1.0179">
        <ele>190</ele>
        <time>2013-09-01T07:20:01Z</time>
      </trkpt>
      <trkpt lat="45.3064" lon="1.01801">
        <ele>192</ele>
        <time>2013-09-01T07:20:10Z</time>
      </trkpt>
      <trkpt lat="45.30628" lon="1.01811">
        <ele>193</ele>
        <time>2013-09-01T07:20:17Z</time>
      </trkpt>
      <trkpt lat="45.30623" lon="1.01815">
        <ele>193</ele>
        <time>2013-09-01T07:20:20Z</time>
      </trkpt>
      <trkpt lat="45.30617" lon="1.01828">
        <ele>195</ele>
        <time>2013-09-01T07:20:27Z</time>
      </trkpt>
      <trkpt lat="45.30614" lon="1.01832">
        <ele>195</ele>
        <time>2013-09-01T07:20:29Z</time>
      </trkpt>
      <trkpt lat="45.30599" lon="1.01851">
        <ele>197</ele>
        <time>2013-09-01T07:20:38Z</time>
      </trkpt>
      <trkpt lat="45.30588" lon="1.01868">
        <ele>198</ele>
        <time>2013-09-01T07:20:46Z</time>
      </trkpt>
      <trkpt lat="45.30578" lon="1.01887">
        <ele>199</ele>
        <time>2013-09-01T07:20:53Z</time>
      </trkpt>
      <trkpt lat="45.30569" lon="1.01906">
        <ele>201</ele>
        <time>2013-09-01T07:21:01Z</time>
      </trkpt>
      <trkpt lat="45.30553" lon="1.01931">
        <ele>202</ele>
        <time>2013-09-01T07:21:11Z</time>
      </trkpt>
      <trkpt lat="45.30545" lon="1.01952">
        <ele>203</ele>
        <time>2013-09-01T07:21:19Z</time>
      </trkpt>
      <trkpt lat="45.30546" lon="1.01958">
        <ele>203</ele>
        <time>2013-09-01T07:21:21Z</time>
      </trkpt>
      <trkpt lat="45.30562" lon="1.01975">
        <ele>203</ele>
        <time>2013-09-01T07:21:29Z</time>
      </trkpt>
      <trkpt lat="45.30564" lon="1.01974">
        <ele>207.7</ele>
      </trkpt>
      <trkpt lat="45.30571" lon="1.01996">
        <ele>207.4</ele>
      </trkpt>
      <trkpt lat="45.30571" lon="1.01996">
        <ele>207.4</ele>
      </trkpt>
      <trkpt lat="45.30571" lon="1.01996">
        <ele>207.4</ele>
      </trkpt>
      <trkpt lat="45.30567" lon="1.01996">
        <ele>207.6</ele>
      </trkpt>
      <trkpt lat="45.30564" lon="1.02002">
        <ele>207.7</ele>
      </trkpt>
      <trkpt lat="45.30571" lon="1.01999">
        <ele>207.4</ele>
      </trkpt>
      <trkpt lat="45.30573" lon="1.01992">
        <ele>202</ele>
        <time>2013-09-01T07:22:07Z</time>
      </trkpt>
      <trkpt lat="45.30562" lon="1.02015">
        <ele>203</ele>
        <time>2013-09-01T07:22:15Z</time>
      </trkpt>
      <trkpt lat="45.30548" lon="1.02047">
        <ele>203</ele>
        <time>2013-09-01T07:22:24Z</time>
      </trkpt>
      <trkpt lat="45.30533" lon="1.02079">
        <ele>204</ele>
        <time>2013-09-01T07:22:34Z</time>
      </trkpt>
      <trkpt lat="45.30519" lon="1.02108">
        <ele>205</ele>
        <time>2013-09-01T07:22:44Z</time>
      </trkpt>
      <trkpt lat="45.30508" lon="1.02135">
        <ele>207</ele>
        <time>2013-09-01T07:22:52Z</time>
      </trkpt>
      <trkpt lat="45.30498" lon="1.02155">
        <ele>208</ele>
        <time>2013-09-01T07:22:59Z</time>
      </trkpt>
      <trkpt lat="45.30484" lon="1.0218">
        <ele>210</ele>
        <time>2013-09-01T07:23:08Z</time>
      </trkpt>
      <trkpt lat="45.30468" lon="1.02199">
        <ele>211</ele>
        <time>2013-09-01T07:23:17Z</time>
      </trkpt>
      <trkpt lat="45.30451" lon="1.02222">
        <ele>213</ele>
        <time>2013-09-01T07:23:26Z</time>
      </trkpt>
      <trkpt lat="45.30432" lon="1.02242">
        <ele>214</ele>
        <time>2013-09-01T07:23:35Z</time>
      </trkpt>
      <trkpt lat="45.30412" lon="1.0226">
        <ele>215</ele>
        <time>2013-09-01T07:23:44Z</time>
      </trkpt>
      <trkpt lat="45.30393" lon="1.02279">
        <ele>215</ele>
        <time>2013-09-01T07:23:52Z</time>
      </trkpt>
      <trkpt lat="45.30375" lon="1.02294">
        <ele>215</ele>
        <time>2013-09-01T07:23:59Z</time>
      </trkpt>
      <trkpt lat="45.30354" lon="1.02312">
        <ele>215</ele>
        <time>2013-09-01T07:24:06Z</time>
      </trkpt>
      <trkpt lat="45.30317" lon="1.02342">
        <ele>214</ele>
        <time>2013-09-01T07:24:16Z</time>
      </trkpt>
      <trkpt lat="45.30287" lon="1.02368">
        <ele>213</ele>
        <time>2013-09-01T07:24:24Z</time>
      </trkpt>
      <trkpt lat="45.30253" lon="1.02397">
        <ele>213</ele>
        <time>2013-09-01T07:24:33Z</time>
      </trkpt>
      <trkpt lat="45.30214" lon="1.02429">
        <ele>212</ele>
        <time>2013-09-01T07:24:43Z</time>
      </trkpt>
      <trkpt lat="45.30192" lon="1.02448">
        <ele>213</ele>
        <time>2013-09-01T07:24:50Z</time>
      </trkpt>
      <trkpt lat="45.30161" lon="1.02476">
        <ele>213</ele>
        <time>2013-09-01T07:25:00Z</time>
      </trkpt>
      <trkpt lat="45.30132" lon="1.025">
        <ele>214</ele>
        <time>2013-09-01T07:25:10Z</time>
      </trkpt>
      <trkpt lat="45.30113" lon="1.02518">
        <ele>215</ele>
        <time>2013-09-01T07:25:18Z</time>
      </trkpt>
      <trkpt lat="45.30094" lon="1.02541">
        <ele>217</ele>
        <time>2013-09-01T07:25:27Z</time>
      </trkpt>
      <trkpt lat="45.3008" lon="1.02564">
        <ele>218</ele>
        <time>2013-09-01T07:25:35Z</time>
      </trkpt>
      <trkpt lat="45.30061" lon="1.02599">
        <ele>221</ele>
        <time>2013-09-01T07:25:47Z</time>
      </trkpt>
      <trkpt lat="45.3005" lon="1.02617">
        <ele>222</ele>
        <time>2013-09-01T07:25:55Z</time>
      </trkpt>
      <trkpt lat="45.30039" lon="1.02638">
        <ele>223</ele>
        <time>2013-09-01T07:26:03Z</time>
      </trkpt>
      <trkpt lat="45.30029" lon="1.02652">
        <ele>225</ele>
        <time>2013-09-01T07:26:12Z</time>
      </trkpt>
      <trkpt lat="45.30025" lon="1.02658">
        <ele>224</ele>
        <time>2013-09-01T07:26:20Z</time>
      </trkpt>
      <trkpt lat="45.30018" lon="1.02668">
        <ele>224</ele>
        <time>2013-09-01T07:26:25Z</time>
      </trkpt>
      <trkpt lat="45.30011" lon="1.02682">
        <ele>225</ele>
        <time>2013-09-01T07:26:32Z</time>
      </trkpt>
      <trkpt lat="45.30002" lon="1.02698">
        <ele>225</ele>
        <time>2013-09-01T07:26:39Z</time>
      </trkpt>
      <trkpt lat="45.29988" lon="1.0272">
        <ele>225</ele>
        <time>2013-09-01T07:26:47Z</time>
      </trkpt>
      <trkpt lat="45.29979" lon="1.02748">
        <ele>226</ele>
        <time>2013-09-01T07:26:54Z</time>
      </trkpt>
      <trkpt lat="45.29968" lon="1.02773">
        <ele>227</ele>
        <time>2013-09-01T07:27:02Z</time>
      </trkpt>
      <trkpt lat="45.29957" lon="1.02804">
        <ele>227</ele>
        <time>2013-09-01T07:27:10Z</time>
      </trkpt>
      <trkpt lat="45.29946" lon="1.02822">
        <ele>227</ele>
        <time>2013-09-01T07:27:16Z</time>
      </trkpt>
      <trkpt lat="45.29931" lon="1.02845">
        <ele>228</ele>
        <time>2013-09-01T07:27:23Z</time>
      </trkpt>
      <trkpt lat="45.29913" lon="1.0287">
        <ele>227</ele>
        <time>2013-09-01T07:27:31Z</time>
      </trkpt>
      <trkpt lat="45.29898" lon="1.02897">
        <ele>227</ele>
        <time>2013-09-01T07:27:38Z</time>
      </trkpt>
      <trkpt lat="45.29885" lon="1.02926">
        <ele>227</ele>
        <time>2013-09-01T07:27:45Z</time>
      </trkpt>
      <trkpt lat="45.29875" lon="1.02961">
        <ele>227</ele>
        <time>2013-09-01T07:27:52Z</time>
      </trkpt>
      <trkpt lat="45.29869" lon="1.02989">
        <ele>228</ele>
        <time>2013-09-01T07:27:59Z</time>
      </trkpt>
      <trkpt lat="45.29868" lon="1.02993">
        <ele>228</ele>
        <time>2013-09-01T07:28:00Z</time>
      </trkpt>
      <trkpt lat="45.29857" lon="1.03013">
        <ele>227</ele>
        <time>2013-09-01T07:28:06Z</time>
      </trkpt>
      <trkpt lat="45.29839" lon="1.03039">
        <ele>227</ele>
        <time>2013-09-01T07:28:12Z</time>
      </trkpt>
      <trkpt lat="45.29826" lon="1.03063">
        <ele>227</ele>
        <time>2013-09-01T07:28:18Z</time>
      </trkpt>
      <trkpt lat="45.2981" lon="1.03082">
        <ele>228</ele>
        <time>2013-09-01T07:28:25Z</time>
      </trkpt>
      <trkpt lat="45.29794" lon="1.03101">
        <ele>229</ele>
        <time>2013-09-01T07:28:31Z</time>
      </trkpt>
      <trkpt lat="45.29785" lon="1.03118">
        <ele>229</ele>
        <time>2013-09-01T07:28:37Z</time>
      </trkpt>
      <trkpt lat="45.29771" lon="1.03138">
        <ele>231</ele>
        <time>2013-09-01T07:28:46Z</time>
      </trkpt>
      <trkpt lat="45.29756" lon="1.03157">
        <ele>233</ele>
        <time>2013-09-01T07:28:53Z</time>
      </trkpt>
      <trkpt lat="45.29748" lon="1.03165">
        <ele>233</ele>
        <time>2013-09-01T07:28:57Z</time>
      </trkpt>
      <trkpt lat="45.29746" lon="1.0317">
        <ele>233</ele>
        <time>2013-09-01T07:28:59Z</time>
      </trkpt>
      <trkpt lat="45.29754" lon="1.03177">
        <ele>235</ele>
        <time>2013-09-01T07:29:05Z</time>
      </trkpt>
      <trkpt lat="45.2976" lon="1.03176">
        <ele>235</ele>
        <time>2013-09-01T07:29:09Z</time>
      </trkpt>
      <trkpt lat="45.29771" lon="1.03176">
        <ele>235</ele>
        <time>2013-09-01T07:29:17Z</time>
      </trkpt>
      <trkpt lat="45.29777" lon="1.03175">
        <ele>236</ele>
        <time>2013-09-01T07:29:20Z</time>
      </trkpt>
      <trkpt lat="45.29799" lon="1.03177">
        <ele>238</ele>
        <time>2013-09-01T07:29:30Z</time>
      </trkpt>
      <trkpt lat="45.29818" lon="1.03178">
        <ele>239</ele>
        <time>2013-09-01T07:29:37Z</time>
      </trkpt>
      <trkpt lat="45.29833" lon="1.03181">
        <ele>239</ele>
        <time>2013-09-01T07:29:43Z</time>
      </trkpt>
      <trkpt lat="45.29845" lon="1.0318">
        <ele>239</ele>
        <time>2013-09-01T07:29:47Z</time>
      </trkpt>
      <trkpt lat="45.29869" lon="1.03185">
        <ele>239</ele>
        <time>2013-09-01T07:29:54Z</time>
      </trkpt>
      <trkpt lat="45.29892" lon="1.03187">
        <ele>240</ele>
        <time>2013-09-01T07:30:01Z</time>
      </trkpt>
      <trkpt lat="45.29919" lon="1.03191">
        <ele>240</ele>
        <time>2013-09-01T07:30:08Z</time>
      </trkpt>
      <trkpt lat="45.2994" lon="1.03195">
        <ele>241</ele>
        <time>2013-09-01T07:30:15Z</time>
      </trkpt>
      <trkpt lat="45.29956" lon="1.03203">
        <ele>241</ele>
        <time>2013-09-01T07:30:22Z</time>
      </trkpt>
      <trkpt lat="45.29959" lon="1.03203">
        <ele>241</ele>
        <time>2013-09-01T07:30:23Z</time>
      </trkpt>
      <trkpt lat="45.29976" lon="1.03207">
        <ele>240</ele>
        <time>2013-09-01T07:30:29Z</time>
      </trkpt>
      <trkpt lat="45.29987" lon="1.03215">
        <ele>239</ele>
        <time>2013-09-01T07:30:32Z</time>
      </trkpt>
      <trkpt lat="45.30004" lon="1.03225">
        <ele>238</ele>
        <time>2013-09-01T07:30:36Z</time>
      </trkpt>
      <trkpt lat="45.30025" lon="1.03241">
        <ele>235</ele>
        <time>2013-09-01T07:30:43Z</time>
      </trkpt>
      <trkpt lat="45.30028" lon="1.03242">
        <ele>234</ele>
        <time>2013-09-01T07:30:44Z</time>
      </trkpt>
      <trkpt lat="45.30045" lon="1.03247">
        <ele>231</ele>
        <time>2013-09-01T07:30:49Z</time>
      </trkpt>
      <trkpt lat="45.30051" lon="1.03248">
        <ele>231</ele>
        <time>2013-09-01T07:30:50Z</time>
      </trkpt>
      <trkpt lat="45.3006" lon="1.03254">
        <ele>229</ele>
        <time>2013-09-01T07:30:54Z</time>
      </trkpt>
      <trkpt lat="45.30072" lon="1.03277">
        <ele>226</ele>
        <time>2013-09-01T07:31:01Z</time>
      </trkpt>
      <trkpt lat="45.30074" lon="1.03278">
        <ele>226</ele>
        <time>2013-09-01T07:31:02Z</time>
      </trkpt>
      <trkpt lat="45.30093" lon="1.03289">
        <ele>222</ele>
        <time>2013-09-01T07:31:10Z</time>
      </trkpt>
      <trkpt lat="45.30101" lon="1.03296">
        <ele>221</ele>
        <time>2013-09-01T07:31:13Z</time>
      </trkpt>
      <trkpt lat="45.30114" lon="1.03305">
        <ele>218</ele>
        <time>2013-09-01T07:31:18Z</time>
      </trkpt>
      <trkpt lat="45.30133" lon="1.03311">
        <ele>216</ele>
        <time>2013-09-01T07:31:22Z</time>
      </trkpt>
      <trkpt lat="45.30174" lon="1.03333">
        <ele>213</ele>
        <time>2013-09-01T07:31:29Z</time>
      </trkpt>
      <trkpt lat="45.30225" lon="1.03342">
        <ele>210</ele>
        <time>2013-09-01T07:31:37Z</time>
      </trkpt>
      <trkpt lat="45.30275" lon="1.03343">
        <ele>209</ele>
        <time>2013-09-01T07:31:45Z</time>
      </trkpt>
      <trkpt lat="45.30297" lon="1.03345">
        <ele>209</ele>
        <time>2013-09-01T07:31:50Z</time>
      </trkpt>
      <trkpt lat="45.30317" lon="1.03363">
        <ele>210</ele>
        <time>2013-09-01T07:31:57Z</time>
      </trkpt>
      <trkpt lat="45.30327" lon="1.03374">
        <ele>211</ele>
        <time>2013-09-01T07:32:02Z</time>
      </trkpt>
      <trkpt lat="45.30337" lon="1.03383">
        <ele>211</ele>
        <time>2013-09-01T07:32:06Z</time>
      </trkpt>
      <trkpt lat="45.30336" lon="1.03407">
        <ele>211</ele>
        <time>2013-09-01T07:32:13Z</time>
      </trkpt>
      <trkpt lat="45.30323" lon="1.03436">
        <ele>211</ele>
        <time>2013-09-01T07:32:21Z</time>
      </trkpt>
      <trkpt lat="45.3031" lon="1.03462">
        <ele>212</ele>
        <time>2013-09-01T07:32:29Z</time>
      </trkpt>
      <trkpt lat="45.30297" lon="1.03489">
        <ele>213</ele>
        <time>2013-09-01T07:32:37Z</time>
      </trkpt>
      <trkpt lat="45.30288" lon="1.03517">
        <ele>213</ele>
        <time>2013-09-01T07:32:44Z</time>
      </trkpt>
      <trkpt lat="45.30283" lon="1.03549">
        <ele>214</ele>
        <time>2013-09-01T07:32:52Z</time>
      </trkpt>
      <trkpt lat="45.30278" lon="1.03579">
        <ele>214</ele>
        <time>2013-09-01T07:32:59Z</time>
      </trkpt>
      <trkpt lat="45.30271" lon="1.03613">
        <ele>214</ele>
        <time>2013-09-01T07:33:07Z</time>
      </trkpt>
      <trkpt lat="45.30264" lon="1.03637">
        <ele>215</ele>
        <time>2013-09-01T07:33:15Z</time>
      </trkpt>
      <trkpt lat="45.30256" lon="1.03669">
        <ele>217</ele>
        <time>2013-09-01T07:33:24Z</time>
      </trkpt>
      <trkpt lat="45.3025" lon="1.03699">
        <ele>217</ele>
        <time>2013-09-01T07:33:33Z</time>
      </trkpt>
      <trkpt lat="45.30249" lon="1.03716">
        <ele>218</ele>
        <time>2013-09-01T07:33:39Z</time>
      </trkpt>
      <trkpt lat="45.30248" lon="1.0374">
        <ele>219</ele>
        <time>2013-09-01T07:33:47Z</time>
      </trkpt>
      <trkpt lat="45.30261" lon="1.03761">
        <ele>219</ele>
        <time>2013-09-01T07:33:54Z</time>
      </trkpt>
      <trkpt lat="45.30274" lon="1.03772">
        <ele>219</ele>
        <time>2013-09-01T07:34:00Z</time>
      </trkpt>
      <trkpt lat="45.30277" lon="1.03775">
        <ele>219</ele>
        <time>2013-09-01T07:34:03Z</time>
      </trkpt>
      <trkpt lat="45.3028" lon="1.03765">
        <ele>217</ele>
        <time>2013-09-01T07:34:10Z</time>
      </trkpt>
      <trkpt lat="45.3029" lon="1.03765">
        <ele>216</ele>
        <time>2013-09-01T07:34:15Z</time>
      </trkpt>
      <trkpt lat="45.30306" lon="1.03763">
        <ele>213</ele>
        <time>2013-09-01T07:34:20Z</time>
      </trkpt>
      <trkpt lat="45.30314" lon="1.03761">
        <ele>211</ele>
        <time>2013-09-01T07:34:24Z</time>
      </trkpt>
      <trkpt lat="45.30324" lon="1.03762">
        <ele>209</ele>
        <time>2013-09-01T07:34:27Z</time>
      </trkpt>
      <trkpt lat="45.30345" lon="1.0377">
        <ele>210</ele>
        <time>2013-09-01T07:34:32Z</time>
      </trkpt>
      <trkpt lat="45.30355" lon="1.03782">
        <ele>211</ele>
        <time>2013-09-01T07:34:38Z</time>
      </trkpt>
      <trkpt lat="45.30361" lon="1.03793">
        <ele>214</ele>
        <time>2013-09-01T07:34:45Z</time>
      </trkpt>
      <trkpt lat="45.30369" lon="1.03813">
        <ele>216</ele>
        <time>2013-09-01T07:34:54Z</time>
      </trkpt>
      <trkpt lat="45.3037" lon="1.03815">
        <ele>216</ele>
        <time>2013-09-01T07:34:56Z</time>
      </trkpt>
      <trkpt lat="45.30383" lon="1.03819">
        <ele>218</ele>
        <time>2013-09-01T07:35:03Z</time>
      </trkpt>
      <trkpt lat="45.30386" lon="1.03817">
        <ele>218</ele>
        <time>2013-09-01T07:35:06Z</time>
      </trkpt>
      <trkpt lat="45.30389" lon="1.03816">
        <ele>218</ele>
        <time>2013-09-01T07:35:08Z</time>
      </trkpt>
      <trkpt lat="45.30392" lon="1.03814">
        <ele>219</ele>
        <time>2013-09-01T07:35:11Z</time>
      </trkpt>
      <trkpt lat="45.30411" lon="1.03817">
        <ele>220</ele>
        <time>2013-09-01T07:35:20Z</time>
      </trkpt>
      <trkpt lat="45.30424" lon="1.03824">
        <ele>221</ele>
        <time>2013-09-01T07:35:28Z</time>
      </trkpt>
      <trkpt lat="45.30438" lon="1.03832">
        <ele>224</ele>
        <time>2013-09-01T07:35:37Z</time>
      </trkpt>
      <trkpt lat="45.30451" lon="1.03828">
        <ele>225</ele>
        <time>2013-09-01T07:35:44Z</time>
      </trkpt>
      <trkpt lat="45.30474" lon="1.03822">
        <ele>225</ele>
        <time>2013-09-01T07:35:54Z</time>
      </trkpt>
      <trkpt lat="45.30497" lon="1.03816">
        <ele>226</ele>
        <time>2013-09-01T07:36:04Z</time>
      </trkpt>
      <trkpt lat="45.30507" lon="1.03826">
        <ele>227</ele>
        <time>2013-09-01T07:36:10Z</time>
      </trkpt>
      <trkpt lat="45.30513" lon="1.03834">
        <ele>228</ele>
        <time>2013-09-01T07:36:16Z</time>
      </trkpt>
      <trkpt lat="45.30521" lon="1.03846">
        <ele>228</ele>
        <time>2013-09-01T07:36:23Z</time>
      </trkpt>
      <trkpt lat="45.30531" lon="1.03859">
        <ele>230</ele>
        <time>2013-09-01T07:36:30Z</time>
      </trkpt>
      <trkpt lat="45.30543" lon="1.03874">
        <ele>231</ele>
        <time>2013-09-01T07:36:38Z</time>
      </trkpt>
      <trkpt lat="45.30561" lon="1.03889">
        <ele>233</ele>
        <time>2013-09-01T07:36:48Z</time>
      </trkpt>
      <trkpt lat="45.30579" lon="1.03893">
        <ele>235</ele>
        <time>2013-09-01T07:36:57Z</time>
      </trkpt>
      <trkpt lat="45.30597" lon="1.03898">
        <ele>237</ele>
        <time>2013-09-01T07:37:07Z</time>
      </trkpt>
      <trkpt lat="45.30612" lon="1.03899">
        <ele>239</ele>
        <time>2013-09-01T07:37:16Z</time>
      </trkpt>
      <trkpt lat="45.30628" lon="1.03898">
        <ele>240</ele>
        <time>2013-09-01T07:37:25Z</time>
      </trkpt>
      <trkpt lat="45.30641" lon="1.039">
        <ele>241</ele>
        <time>2013-09-01T07:37:33Z</time>
      </trkpt>
      <trkpt lat="45.3065" lon="1.03899">
        <ele>243</ele>
        <time>2013-09-01T07:37:41Z</time>
      </trkpt>
      <trkpt lat="45.30672" lon="1.03907">
        <ele>245</ele>
        <time>2013-09-01T07:37:50Z</time>
      </trkpt>
      <trkpt lat="45.30684" lon="1.0392">
        <ele>246</ele>
        <time>2013-09-01T07:37:58Z</time>
      </trkpt>
      <trkpt lat="45.30692" lon="1.0394">
        <ele>248</ele>
        <time>2013-09-01T07:38:07Z</time>
      </trkpt>
      <trkpt lat="45.307" lon="1.03959">
        <ele>249</ele>
        <time>2013-09-01T07:38:15Z</time>
      </trkpt>
      <trkpt lat="45.30711" lon="1.0398">
        <ele>250</ele>
        <time>2013-09-01T07:38:24Z</time>
      </trkpt>
      <trkpt lat="45.3072" lon="1.03999">
        <ele>251</ele>
        <time>2013-09-01T07:38:32Z</time>
      </trkpt>
      <trkpt lat="45.30725" lon="1.04017">
        <ele>250</ele>
        <time>2013-09-01T07:38:39Z</time>
      </trkpt>
      <trkpt lat="45.30735" lon="1.04043">
        <ele>247</ele>
        <time>2013-09-01T07:38:46Z</time>
      </trkpt>
      <trkpt lat="45.30741" lon="1.0406">
        <ele>245</ele>
        <time>2013-09-01T07:38:50Z</time>
      </trkpt>
      <trkpt lat="45.30742" lon="1.04063">
        <ele>245</ele>
        <time>2013-09-01T07:38:51Z</time>
      </trkpt>
      <trkpt lat="45.30758" lon="1.04074">
        <ele>240</ele>
        <time>2013-09-01T07:38:56Z</time>
      </trkpt>
      <trkpt lat="45.30781" lon="1.04083">
        <ele>239</ele>
        <time>2013-09-01T07:38:59Z</time>
      </trkpt>
      <trkpt lat="45.3079" lon="1.04082">
        <ele>237</ele>
        <time>2013-09-01T07:39:01Z</time>
      </trkpt>
      <trkpt lat="45.30814" lon="1.04072">
        <ele>237</ele>
        <time>2013-09-01T07:39:07Z</time>
      </trkpt>
      <trkpt lat="45.30837" lon="1.04066">
        <ele>235</ele>
        <time>2013-09-01T07:39:15Z</time>
      </trkpt>
      <trkpt lat="45.30842" lon="1.04064">
        <ele>234</ele>
        <time>2013-09-01T07:39:17Z</time>
      </trkpt>
      <trkpt lat="45.3085" lon="1.04061">
        <ele>233</ele>
        <time>2013-09-01T07:39:19Z</time>
      </trkpt>
      <trkpt lat="45.30868" lon="1.04058">
        <ele>231</ele>
        <time>2013-09-01T07:39:22Z</time>
      </trkpt>
      <trkpt lat="45.30873" lon="1.04058">
        <ele>230</ele>
        <time>2013-09-01T07:39:23Z</time>
      </trkpt>
      <trkpt lat="45.30888" lon="1.04055">
        <ele>228</ele>
        <time>2013-09-01T07:39:26Z</time>
      </trkpt>
      <trkpt lat="45.30901" lon="1.04054">
        <ele>228</ele>
        <time>2013-09-01T07:39:28Z</time>
      </trkpt>
      <trkpt lat="45.30927" lon="1.04037">
        <ele>226</ele>
        <time>2013-09-01T07:39:33Z</time>
      </trkpt>
      <trkpt lat="45.30946" lon="1.04036">
        <ele>224</ele>
        <time>2013-09-01T07:39:36Z</time>
      </trkpt>
      <trkpt lat="45.30983" lon="1.0403">
        <ele>220</ele>
        <time>2013-09-01T07:39:42Z</time>
      </trkpt>
      <trkpt lat="45.30989" lon="1.04028">
        <ele>219</ele>
        <time>2013-09-01T07:39:43Z</time>
      </trkpt>
      <trkpt lat="45.31015" lon="1.0401">
        <ele>216</ele>
        <time>2013-09-01T07:39:46Z</time>
      </trkpt>
      <trkpt lat="45.31061" lon="1.03984">
        <ele>212</ele>
        <time>2013-09-01T07:39:52Z</time>
      </trkpt>
      <trkpt lat="45.31072" lon="1.03981">
        <ele>212</ele>
        <time>2013-09-01T07:39:53Z</time>
      </trkpt>
      <trkpt lat="45.31107" lon="1.03973">
        <ele>211</ele>
        <time>2013-09-01T07:39:57Z</time>
      </trkpt>
      <trkpt lat="45.3112" lon="1.03966">
        <ele>211</ele>
        <time>2013-09-01T07:39:59Z</time>
      </trkpt>
      <trkpt lat="45.31155" lon="1.03937">
        <ele>211</ele>
        <time>2013-09-01T07:40:05Z</time>
      </trkpt>
      <trkpt lat="45.31175" lon="1.03914">
        <ele>210</ele>
        <time>2013-09-01T07:40:10Z</time>
      </trkpt>
      <trkpt lat="45.31197" lon="1.03892">
        <ele>209</ele>
        <time>2013-09-01T07:40:16Z</time>
      </trkpt>
      <trkpt lat="45.31201" lon="1.03887">
        <ele>209</ele>
        <time>2013-09-01T07:40:17Z</time>
      </trkpt>
      <trkpt lat="45.31231" lon="1.03855">
        <ele>209</ele>
        <time>2013-09-01T07:40:24Z</time>
      </trkpt>
      <trkpt lat="45.31235" lon="1.03851">
        <ele>208</ele>
        <time>2013-09-01T07:40:25Z</time>
      </trkpt>
      <trkpt lat="45.31248" lon="1.03836">
        <ele>208</ele>
        <time>2013-09-01T07:40:28Z</time>
      </trkpt>
      <trkpt lat="45.31276" lon="1.03794">
        <ele>206</ele>
        <time>2013-09-01T07:40:35Z</time>
      </trkpt>
      <trkpt lat="45.31281" lon="1.03787">
        <ele>205</ele>
        <time>2013-09-01T07:40:36Z</time>
      </trkpt>
      <trkpt lat="45.313" lon="1.03768">
        <ele>202</ele>
        <time>2013-09-01T07:40:40Z</time>
      </trkpt>
      <trkpt lat="45.31323" lon="1.03748">
        <ele>200</ele>
        <time>2013-09-01T07:40:44Z</time>
      </trkpt>
      <trkpt lat="45.31347" lon="1.03731">
        <ele>197</ele>
        <time>2013-09-01T07:40:48Z</time>
      </trkpt>
      <trkpt lat="45.31369" lon="1.03715">
        <ele>194</ele>
        <time>2013-09-01T07:40:52Z</time>
      </trkpt>
      <trkpt lat="45.31397" lon="1.03699">
        <ele>190</ele>
        <time>2013-09-01T07:40:56Z</time>
      </trkpt>
      <trkpt lat="45.3141" lon="1.03692">
        <ele>188</ele>
        <time>2013-09-01T07:40:58Z</time>
      </trkpt>
      <trkpt lat="45.31438" lon="1.03674">
        <ele>185</ele>
        <time>2013-09-01T07:41:03Z</time>
      </trkpt>
      <trkpt lat="45.31461" lon="1.03657">
        <ele>181</ele>
        <time>2013-09-01T07:41:07Z</time>
      </trkpt>
      <trkpt lat="45.31477" lon="1.03643">
        <ele>178</ele>
        <time>2013-09-01T07:41:10Z</time>
      </trkpt>
      <trkpt lat="45.3149" lon="1.03632">
        <ele>177</ele>
        <time>2013-09-01T07:41:12Z</time>
      </trkpt>
      <trkpt lat="45.31512" lon="1.03615">
        <ele>175</ele>
        <time>2013-09-01T07:41:16Z</time>
      </trkpt>
      <trkpt lat="45.31531" lon="1.03596">
        <ele>171</ele>
        <time>2013-09-01T07:41:20Z</time>
      </trkpt>
      <trkpt lat="45.31545" lon="1.03583">
        <ele>169</ele>
        <time>2013-09-01T07:41:23Z</time>
      </trkpt>
      <trkpt lat="45.31581" lon="1.03557">
        <ele>165</ele>
        <time>2013-09-01T07:41:29Z</time>
      </trkpt>
      <trkpt lat="45.31602" lon="1.03543">
        <ele>163</ele>
        <time>2013-09-01T07:41:32Z</time>
      </trkpt>
      <trkpt lat="45.31643" lon="1.03516">
        <ele>159</ele>
        <time>2013-09-01T07:41:39Z</time>
      </trkpt>
      <trkpt lat="45.31655" lon="1.03508">
        <ele>158</ele>
        <time>2013-09-01T07:41:41Z</time>
      </trkpt>
      <trkpt lat="45.31681" lon="1.03488">
        <ele>157</ele>
        <time>2013-09-01T07:41:47Z</time>
      </trkpt>
      <trkpt lat="45.31696" lon="1.03471">
        <ele>156</ele>
        <time>2013-09-01T07:41:54Z</time>
      </trkpt>
      <trkpt lat="45.31697" lon="1.03469">
        <ele>156</ele>
        <time>2013-09-01T07:42:01Z</time>
      </trkpt>
      <trkpt lat="45.31699" lon="1.03469">
        <ele>156</ele>
        <time>2013-09-01T07:42:15Z</time>
      </trkpt>
      <trkpt lat="45.31707" lon="1.03469">
        <ele>155</ele>
        <time>2013-09-01T07:42:22Z</time>
      </trkpt>
      <trkpt lat="45.31712" lon="1.03468">
        <ele>155</ele>
        <time>2013-09-01T07:42:30Z</time>
      </trkpt>
      <trkpt lat="45.31715" lon="1.03468">
        <ele>155</ele>
        <time>2013-09-01T07:42:32Z</time>
      </trkpt>
      <trkpt lat="45.31727" lon="1.03469">
        <ele>154</ele>
        <time>2013-09-01T07:42:40Z</time>
      </trkpt>
      <trkpt lat="45.31731" lon="1.03469">
        <ele>154</ele>
        <time>2013-09-01T07:42:47Z</time>
      </trkpt>
      <trkpt lat="45.31738" lon="1.03467">
        <ele>153</ele>
        <time>2013-09-01T07:43:04Z</time>
      </trkpt>
      <trkpt lat="45.31757" lon="1.03466">
        <ele>152</ele>
        <time>2013-09-01T07:43:11Z</time>
      </trkpt>
      <trkpt lat="45.31776" lon="1.03465">
        <ele>150</ele>
        <time>2013-09-01T07:43:15Z</time>
      </trkpt>
      <trkpt lat="45.31782" lon="1.03465">
        <ele>149</ele>
        <time>2013-09-01T07:43:16Z</time>
      </trkpt>
      <trkpt lat="45.31812" lon="1.03464">
        <ele>147</ele>
        <time>2013-09-01T07:43:21Z</time>
      </trkpt>
      <trkpt lat="45.31844" lon="1.03471">
        <ele>146</ele>
        <time>2013-09-01T07:43:26Z</time>
      </trkpt>
      <trkpt lat="45.31863" lon="1.03482">
        <ele>145</ele>
        <time>2013-09-01T07:43:29Z</time>
      </trkpt>
      <trkpt lat="45.31906" lon="1.03488">
        <ele>147</ele>
        <time>2013-09-01T07:43:36Z</time>
      </trkpt>
      <trkpt lat="45.31927" lon="1.03488">
        <ele>147</ele>
        <time>2013-09-01T07:43:40Z</time>
      </trkpt>
      <trkpt lat="45.3197" lon="1.03479">
        <ele>149</ele>
        <time>2013-09-01T07:43:50Z</time>
      </trkpt>
      <trkpt lat="45.32002" lon="1.03461">
        <ele>150</ele>
        <time>2013-09-01T07:43:59Z</time>
      </trkpt>
      <trkpt lat="45.32024" lon="1.03447">
        <ele>150</ele>
        <time>2013-09-01T07:44:06Z</time>
      </trkpt>
      <trkpt lat="45.32053" lon="1.0343">
        <ele>151</ele>
        <time>2013-09-01T07:44:15Z</time>
      </trkpt>
      <trkpt lat="45.3208" lon="1.03425">
        <ele>151</ele>
        <time>2013-09-01T07:44:24Z</time>
      </trkpt>
      <trkpt lat="45.32114" lon="1.03415">
        <ele>149</ele>
        <time>2013-09-01T07:44:34Z</time>
      </trkpt>
      <trkpt lat="45.3215" lon="1.03399">
        <ele>147</ele>
        <time>2013-09-01T07:44:43Z</time>
      </trkpt>
      <trkpt lat="45.32186" lon="1.03386">
        <ele>144</ele>
        <time>2013-09-01T07:44:51Z</time>
      </trkpt>
      <trkpt lat="45.32195" lon="1.03383">
        <ele>143</ele>
        <time>2013-09-01T07:44:53Z</time>
      </trkpt>
      <trkpt lat="45.32214" lon="1.0339">
        <ele>141</ele>
        <time>2013-09-01T07:44:58Z</time>
      </trkpt>
      <trkpt lat="45.32216" lon="1.03395">
        <ele>140</ele>
        <time>2013-09-01T07:44:59Z</time>
      </trkpt>
      <trkpt lat="45.32233" lon="1.03426">
        <ele>140</ele>
        <time>2013-09-01T07:45:06Z</time>
      </trkpt>
      <trkpt lat="45.32237" lon="1.03428">
        <ele>140</ele>
        <time>2013-09-01T07:45:07Z</time>
      </trkpt>
      <trkpt lat="45.32253" lon="1.0345">
        <ele>140</ele>
        <time>2013-09-01T07:45:12Z</time>
      </trkpt>
      <trkpt lat="45.32262" lon="1.03472">
        <ele>142</ele>
        <time>2013-09-01T07:45:19Z</time>
      </trkpt>
      <trkpt lat="45.32263" lon="1.03475">
        <ele>142</ele>
        <time>2013-09-01T07:45:20Z</time>
      </trkpt>
      <trkpt lat="45.32276" lon="1.03492">
        <ele>144</ele>
        <time>2013-09-01T07:45:26Z</time>
      </trkpt>
      <trkpt lat="45.32277" lon="1.03495">
        <ele>144</ele>
        <time>2013-09-01T07:45:27Z</time>
      </trkpt>
      <trkpt lat="45.32292" lon="1.03509">
        <ele>145</ele>
        <time>2013-09-01T07:45:32Z</time>
      </trkpt>
      <trkpt lat="45.32304" lon="1.03529">
        <ele>145</ele>
        <time>2013-09-01T07:45:38Z</time>
      </trkpt>
      <trkpt lat="45.32311" lon="1.0356">
        <ele>146</ele>
        <time>2013-09-01T07:45:46Z</time>
      </trkpt>
      <trkpt lat="45.32314" lon="1.03587">
        <ele>148</ele>
        <time>2013-09-01T07:45:54Z</time>
      </trkpt>
      <trkpt lat="45.32319" lon="1.03621">
        <ele>148</ele>
        <time>2013-09-01T07:46:03Z</time>
      </trkpt>
      <trkpt lat="45.32312" lon="1.03653">
        <ele>149</ele>
        <time>2013-09-01T07:46:11Z</time>
      </trkpt>
      <trkpt lat="45.32309" lon="1.0367">
        <ele>149</ele>
        <time>2013-09-01T07:46:16Z</time>
      </trkpt>
      <trkpt lat="45.32307" lon="1.03699">
        <ele>150</ele>
        <time>2013-09-01T07:46:23Z</time>
      </trkpt>
      <trkpt lat="45.32303" lon="1.03722">
        <ele>151</ele>
        <time>2013-09-01T07:46:29Z</time>
      </trkpt>
      <trkpt lat="45.32301" lon="1.03765">
        <ele>152</ele>
        <time>2013-09-01T07:46:39Z</time>
      </trkpt>
      <trkpt lat="45.32301" lon="1.03799">
        <ele>152</ele>
        <time>2013-09-01T07:46:48Z</time>
      </trkpt>
      <trkpt lat="45.32306" lon="1.03831">
        <ele>152</ele>
        <time>2013-09-01T07:46:56Z</time>
      </trkpt>
      <trkpt lat="45.32311" lon="1.03859">
        <ele>151</ele>
        <time>2013-09-01T07:47:02Z</time>
      </trkpt>
      <trkpt lat="45.32316" lon="1.03888">
        <ele>149</ele>
        <time>2013-09-01T07:47:07Z</time>
      </trkpt>
      <trkpt lat="45.32321" lon="1.03927">
        <ele>148</ele>
        <time>2013-09-01T07:47:13Z</time>
      </trkpt>
      <trkpt lat="45.32326" lon="1.03958">
        <ele>146</ele>
        <time>2013-09-01T07:47:17Z</time>
      </trkpt>
      <trkpt lat="45.32332" lon="1.03999">
        <ele>147</ele>
        <time>2013-09-01T07:47:23Z</time>
      </trkpt>
      <trkpt lat="45.32336" lon="1.04037">
        <ele>149</ele>
        <time>2013-09-01T07:47:31Z</time>
      </trkpt>
      <trkpt lat="45.32342" lon="1.04072">
        <ele>151</ele>
        <time>2013-09-01T07:47:40Z</time>
      </trkpt>
      <trkpt lat="45.32348" lon="1.04106">
        <ele>152</ele>
        <time>2013-09-01T07:47:48Z</time>
      </trkpt>
      <trkpt lat="45.32354" lon="1.04142">
        <ele>153</ele>
        <time>2013-09-01T07:47:57Z</time>
      </trkpt>
      <trkpt lat="45.3236" lon="1.04174">
        <ele>153</ele>
        <time>2013-09-01T07:48:06Z</time>
      </trkpt>
      <trkpt lat="45.32363" lon="1.04197">
        <ele>153</ele>
        <time>2013-09-01T07:48:12Z</time>
      </trkpt>
      <trkpt lat="45.32368" lon="1.04224">
        <ele>153</ele>
        <time>2013-09-01T07:48:20Z</time>
      </trkpt>
      <trkpt lat="45.32374" lon="1.04261">
        <ele>151</ele>
        <time>2013-09-01T07:48:28Z</time>
      </trkpt>
      <trkpt lat="45.32379" lon="1.04281">
        <ele>150</ele>
        <time>2013-09-01T07:48:31Z</time>
      </trkpt>
      <trkpt lat="45.324" lon="1.04327">
        <ele>146</ele>
        <time>2013-09-01T07:48:37Z</time>
      </trkpt>
      <trkpt lat="45.32423" lon="1.0437">
        <ele>148</ele>
        <time>2013-09-01T07:48:43Z</time>
      </trkpt>
      <trkpt lat="45.3243" lon="1.04387">
        <ele>150</ele>
        <time>2013-09-01T07:48:48Z</time>
      </trkpt>
      <trkpt lat="45.3244" lon="1.04407">
        <ele>152</ele>
        <time>2013-09-01T07:48:55Z</time>
      </trkpt>
      <trkpt lat="45.32449" lon="1.04424">
        <ele>153</ele>
        <time>2013-09-01T07:49:01Z</time>
      </trkpt>
      <trkpt lat="45.32455" lon="1.04442">
        <ele>155</ele>
        <time>2013-09-01T07:49:06Z</time>
      </trkpt>
      <trkpt lat="45.32457" lon="1.04466">
        <ele>156</ele>
        <time>2013-09-01T07:49:13Z</time>
      </trkpt>
      <trkpt lat="45.32459" lon="1.04479">
        <ele>156</ele>
        <time>2013-09-01T07:49:16Z</time>
      </trkpt>
      <trkpt lat="45.32466" lon="1.04528">
        <ele>154</ele>
        <time>2013-09-01T07:49:26Z</time>
      </trkpt>
      <trkpt lat="45.32467" lon="1.04566">
        <ele>153</ele>
        <time>2013-09-01T07:49:33Z</time>
      </trkpt>
      <trkpt lat="45.32464" lon="1.04585">
        <ele>151</ele>
        <time>2013-09-01T07:49:38Z</time>
      </trkpt>
      <trkpt lat="45.32475" lon="1.04601">
        <ele>149</ele>
        <time>2013-09-01T07:49:43Z</time>
      </trkpt>
      <trkpt lat="45.32488" lon="1.04606">
        <ele>148</ele>
        <time>2013-09-01T07:49:46Z</time>
      </trkpt>
      <trkpt lat="45.32504" lon="1.04613">
        <ele>147</ele>
        <time>2013-09-01T07:49:49Z</time>
      </trkpt>
      <trkpt lat="45.32522" lon="1.04624">
        <ele>145</ele>
        <time>2013-09-01T07:49:52Z</time>
      </trkpt>
      <trkpt lat="45.32563" lon="1.04646">
        <ele>143</ele>
        <time>2013-09-01T07:49:59Z</time>
      </trkpt>
      <trkpt lat="45.32624" lon="1.0468">
        <ele>142</ele>
        <time>2013-09-01T07:50:09Z</time>
      </trkpt>
      <trkpt lat="45.32625" lon="1.04683">
        <ele>143.7</ele>
      </trkpt>
      <trkpt lat="45.32729" lon="1.04744">
        <ele>143</ele>
      </trkpt>
      <trkpt lat="45.32773" lon="1.04692">
        <ele>140.2</ele>
      </trkpt>
      <trkpt lat="45.32801" lon="1.04762">
        <ele>141.2</ele>
      </trkpt>
      <trkpt lat="45.32883" lon="1.04817">
        <ele>140.9</ele>
      </trkpt>
      <trkpt lat="45.32897" lon="1.04861">
        <ele>140</ele>
      </trkpt>
      <trkpt lat="45.32847" lon="1.0485">
        <ele>143.5</ele>
      </trkpt>
      <trkpt lat="45.32842" lon="1.04818">
        <ele>144.7</ele>
      </trkpt>
      <trkpt lat="45.33099" lon="1.0485">
        <ele>144.1</ele>
      </trkpt>
      <trkpt lat="45.33225" lon="1.04879">
        <ele>145</ele>
      </trkpt>
      <trkpt lat="45.33262" lon="1.04955">
        <ele>143.3</ele>
      </trkpt>
      <trkpt lat="45.33154" lon="1.04989">
        <ele>142</ele>
      </trkpt>
      <trkpt lat="45.33087" lon="1.04997">
        <ele>142</ele>
      </trkpt>
      <trkpt lat="45.33226" lon="1.05326">
        <ele>142</ele>
      </trkpt>
      <trkpt lat="45.33309" lon="1.0549">
        <ele>143.1</ele>
      </trkpt>
      <trkpt lat="45.33489" lon="1.05498">
        <ele>145</ele>
      </trkpt>
      <trkpt lat="45.33589" lon="1.05579">
        <ele>146</ele>
      </trkpt>
      <trkpt lat="45.3363" lon="1.05661">
        <ele>146.7</ele>
      </trkpt>
      <trkpt lat="45.3363" lon="1.05661">
        <ele>146.7</ele>
      </trkpt>
    </trkseg>
  </trk>
</gpx>